Observation data for Claude 12 Southwest on 01/18/2019      Previous  Date  Next       Current Mesonet Observations  Soil Data  Daily Summary Page  Observations in Plain Language
KCL1 180600Z 18016KT 10/M02 A2997 RMK A01 T01031019  RH  043%=      5-min Rain = 0
KCL1 180601Z 19012KT 10/M02 A2997 RMK A01 T01031019  RH  042%=      5-min Rain = 0
KCL1 180602Z 19013KT 10/M02 A2997 RMK A01 T01031019  RH  042%=      5-min Rain = 0
KCL1 180603Z 18011KT 10/M02 A2997 RMK A01 T01031019  RH  043%=      5-min Rain = 0
KCL1 180604Z 18015KT 10/M02 A2997 RMK A01 T01021019  RH  043%=      5-min Rain = 0
KCL1 180605Z 18014KT 10/M02 A2997 RMK A01 T01021019  RH  043%=      5-min Rain = 0
KCL1 180606Z 18015KT 10/M02 A2997 RMK A01 T01021019  RH  043%=      5-min Rain = 0
KCL1 180607Z 18012KT 10/M02 A2997 RMK A01 T01021019  RH  043%=      5-min Rain = 0
KCL1 180608Z 18010KT 10/M02 A2997 RMK A01 T01011019  RH  043%=      5-min Rain = 0
KCL1 180609Z 18011KT 10/M02 A2997 RMK A01 T01001019  RH  043%=      5-min Rain = 0
KCL1 180610Z 18011KT 10/M02 A2997 RMK A01 T01001019  RH  043%=      5-min Rain = 0
KCL1 180611Z 18011KT 10/M02 A2997 RMK A01 T01001020  RH  043%=      5-min Rain = 0
KCL1 180612Z 19011KT 10/M02 A2997 RMK A01 T01001020  RH  043%=      5-min Rain = 0
KCL1 180613Z 19010KT 10/M02 A2997 RMK A01 T01011019  RH  043%=      5-min Rain = 0
KCL1 180614Z 17009KT 10/M02 A2997 RMK A01 T01001020  RH  043%=      5-min Rain = 0
KCL1 180615Z 18011KT 10/M02 A2997 RMK A01 T00991020  RH  043%=      5-min Rain = 0
KCL1 180616Z 17010KT 10/M02 A2997 RMK A01 T01001019  RH  043%=      5-min Rain = 0
KCL1 180617Z 16009KT 10/M02 A2997 RMK A01 T01001020  RH  043%=      5-min Rain = 0
KCL1 180618Z 17007KT 10/M02 A2997 RMK A01 T00991020  RH  043%=      5-min Rain = 0
KCL1 180619Z 18010KT 10/M02 A2997 RMK A01 T00981020  RH  044%=      5-min Rain = 0
KCL1 180620Z 17010KT 10/M02 A2997 RMK A01 T00971020  RH  044%=      5-min Rain = 0
KCL1 180621Z 18010KT 10/M02 A2997 RMK A01 T00981020  RH  044%=      5-min Rain = 0
KCL1 180622Z 17009KT 10/M02 A2997 RMK A01 T00981020  RH  043%=      5-min Rain = 0
KCL1 180623Z 18010KT 10/M02 A2997 RMK A01 T00991021  RH  043%=      5-min Rain = 0
KCL1 180624Z 16008KT 10/M02 A2997 RMK A01 T01001020  RH  043%=      5-min Rain = 0
KCL1 180625Z 17012KT 10/M02 A2997 RMK A01 T01001021  RH  043%=      5-min Rain = 0
KCL1 180626Z 17013KT 10/M02 A2997 RMK A01 T01001021  RH  043%=      5-min Rain = 0
KCL1 180627Z 17012KT 10/M02 A2997 RMK A01 T01011021  RH  043%=      5-min Rain = 0
KCL1 180628Z 17007KT 10/M02 A2997 RMK A01 T01021021  RH  042%=      5-min Rain = 0
KCL1 180629Z 17007KT 10/M02 A2997 RMK A01 T01021020  RH  042%=      5-min Rain = 0
KCL1 180630Z 17009KT 10/M02 A2997 RMK A01 T01011021  RH  042%=      5-min Rain = 0
KCL1 180631Z 18010KT 10/M02 A2997 RMK A01 T01001022  RH  043%=      5-min Rain = 0
KCL1 180632Z 17009KT 10/M02 A2997 RMK A01 T01011021  RH  042%=      5-min Rain = 0
KCL1 180633Z 17007KT 10/M02 A2997 RMK A01 T01011021  RH  042%=      5-min Rain = 0
KCL1 180634Z 18007KT 10/M02 A2997 RMK A01 T01001021  RH  042%=      5-min Rain = 0
KCL1 180635Z 18008KT 10/M02 A2997 RMK A01 T00991022  RH  043%=      5-min Rain = 0
KCL1 180636Z 19008KT 10/M02 A2996 RMK A01 T00981022  RH  043%=      5-min Rain = 0
KCL1 180637Z 19006KT 10/M02 A2996 RMK A01 T00981022  RH  043%=      5-min Rain = 0
KCL1 180638Z 18006KT 10/M02 A2996 RMK A01 T00971022  RH  043%=      5-min Rain = 0
KCL1 180639Z 17008KT 10/M02 A2996 RMK A01 T00971022  RH  043%=      5-min Rain = 0
KCL1 180640Z 18008KT 10/M02 A2996 RMK A01 T00971022  RH  043%=      5-min Rain = 0
KCL1 180641Z 19008KT 10/M02 A2996 RMK A01 T00971022  RH  043%=      5-min Rain = 0
KCL1 180642Z 20008KT 10/M02 A2996 RMK A01 T00971022  RH  043%=      5-min Rain = 0
KCL1 180643Z 19005KT 10/M02 A2996 RMK A01 T00981022  RH  043%=      5-min Rain = 0
KCL1 180644Z 19005KT 10/M02 A2996 RMK A01 T00981022  RH  043%=      5-min Rain = 0
KCL1 180645Z 19005KT 10/M02 A2996 RMK A01 T00971022  RH  043%=      5-min Rain = 0
KCL1 180646Z 19005KT 10/M02 A2996 RMK A01 T00961023  RH  043%=      5-min Rain = 0
KCL1 180647Z 19006KT 10/M02 A2996 RMK A01 T00951023  RH  044%=      5-min Rain = 0
KCL1 180648Z 18006KT 10/M02 A2995 RMK A01 T00951023  RH  044%=      5-min Rain = 0
KCL1 180649Z 18006KT 10/M02 A2996 RMK A01 T00961023  RH  043%=      5-min Rain = 0
KCL1 180650Z 18005KT 10/M02 A2996 RMK A01 T00961022  RH  043%=      5-min Rain = 0
KCL1 180651Z 20004KT 10/M02 A2996 RMK A01 T00951023  RH  044%=      5-min Rain = 0
KCL1 180652Z 19006KT 10/M02 A2996 RMK A01 T00951023  RH  043%=      5-min Rain = 0
KCL1 180653Z 16005KT 10/M02 A2995 RMK A01 T00961022  RH  043%=      5-min Rain = 0
KCL1 180654Z 17007KT 10/M02 A2995 RMK A01 T00961023  RH  043%=      5-min Rain = 0
KCL1 180655Z 18008KT 10/M02 A2995 RMK A01 T00961023  RH  043%=      5-min Rain = 0
KCL1 180656Z 17007KT 10/M02 A2995 RMK A01 T00961022  RH  043%=      5-min Rain = 0
KCL1 180657Z 18010KT 10/M02 A2995 RMK A01 T00961022  RH  044%=      5-min Rain = 0
KCL1 180658Z 18010KT 10/M02 A2995 RMK A01 T00961022  RH  044%=      5-min Rain = 0
KCL1 180659Z 17008KT 10/M02 A2995 RMK A01 T00971022  RH  043%=      5-min Rain = 0
KCL1 180700Z 17008KT 10/M02 A2995 RMK A01 T00971022  RH  043%=      5-min Rain = 0
KCL1 180701Z 17007KT 10/M02 A2995 RMK A01 T00961023  RH  043%=      5-min Rain = 0
KCL1 180702Z 17006KT 10/M02 A2995 RMK A01 T00951023  RH  044%=      5-min Rain = 0
KCL1 180703Z 17007KT 09/M02 A2995 RMK A01 T00941023  RH  044%=      5-min Rain = 0
KCL1 180704Z 18007KT 09/M02 A2995 RMK A01 T00941022  RH  044%=      5-min Rain = 0
KCL1 180705Z 18007KT 09/M02 A2995 RMK A01 T00931022  RH  044%=      5-min Rain = 0
KCL1 180706Z 18007KT 09/M02 A2995 RMK A01 T00941022  RH  044%=      5-min Rain = 0
KCL1 180707Z 19007KT 09/M02 A2995 RMK A01 T00941022  RH  044%=      5-min Rain = 0
KCL1 180708Z 18007KT 10/M02 A2995 RMK A01 T00951022  RH  044%=      5-min Rain = 0
KCL1 180709Z 18006KT 10/M02 A2995 RMK A01 T00951021  RH  044%=      5-min Rain = 0
KCL1 180710Z 19005KT 10/M02 A2995 RMK A01 T00961021  RH  044%=      5-min Rain = 0
KCL1 180711Z 19008KT 10/M02 A2995 RMK A01 T00971021  RH  044%=      5-min Rain = 0
KCL1 180712Z 18010KT 10/M02 A2994 RMK A01 T01001019  RH  044%=      5-min Rain = 0
KCL1 180713Z 19006KT 10/M02 A2995 RMK A01 T01021018  RH  043%=      5-min Rain = 0
KCL1 180714Z 18007KT 10/M02 A2994 RMK A01 T01031019  RH  043%=      5-min Rain = 0
KCL1 180715Z 18012KT 10/M02 A2994 RMK A01 T01031019  RH  043%=      5-min Rain = 0
KCL1 180716Z 19010KT 10/M02 A2994 RMK A01 T01031019  RH  043%=      5-min Rain = 0
KCL1 180717Z 19007KT 10/M02 A2994 RMK A01 T01041018  RH  042%=      5-min Rain = 0
KCL1 180718Z 19010KT 11/M02 A2994 RMK A01 T01051018  RH  042%=      5-min Rain = 0
KCL1 180719Z 19012KT 10/M02 A2994 RMK A01 T01041018  RH  043%=      5-min Rain = 0
KCL1 180720Z 19010KT 10/M02 A2994 RMK A01 T01031018  RH  043%=      5-min Rain = 0
KCL1 180721Z 19008KT 10/M02 A2994 RMK A01 T01031018  RH  043%=      5-min Rain = 0
KCL1 180722Z 19011KT 10/M02 A2993 RMK A01 T01021018  RH  043%=      5-min Rain = 0
KCL1 180723Z 19011KT 10/M02 A2993 RMK A01 T01021018  RH  043%=      5-min Rain = 0
KCL1 180724Z 19009KT 10/M02 A2993 RMK A01 T01021018  RH  043%=      5-min Rain = 0
KCL1 180725Z 18012KT 10/M02 A2993 RMK A01 T01021017  RH  043%=      5-min Rain = 0
KCL1 180726Z 18009KT 10/M02 A2993 RMK A01 T01021017  RH  043%=      5-min Rain = 0
KCL1 180727Z 19011KT 10/M02 A2993 RMK A01 T01021017  RH  043%=      5-min Rain = 0
KCL1 180728Z 21009KT 10/M02 A2993 RMK A01 T01001018  RH  044%=      5-min Rain = 0
KCL1 180729Z 18007KT 10/M02 A2993 RMK A01 T01001018  RH  044%=      5-min Rain = 0
KCL1 180730Z 19005KT 10/M02 A2993 RMK A01 T01001018  RH  044%=      5-min Rain = 0
KCL1 180731Z 19008KT 10/M02 A2993 RMK A01 T00981018  RH  044%=      5-min Rain = 0
KCL1 180732Z 18010KT 10/M02 A2992 RMK A01 T00981018  RH  044%=      5-min Rain = 0
KCL1 180733Z 18009G14KT 10/M02 A2992 RMK A01 T00971018  RH  044%=      5-min Rain = 0
KCL1 180734Z 18008KT 10/M02 A2992 RMK A01 T00981018  RH  044%=      5-min Rain = 0
KCL1 180735Z 17007KT 10/M02 A2992 RMK A01 T00981018  RH  044%=      5-min Rain = 0
KCL1 180736Z 17006G11KT 10/M02 A2992 RMK A01 T00971018  RH  044%=      5-min Rain = 0
KCL1 180737Z 17010KT 10/M02 A2992 RMK A01 T00971018  RH  045%=      5-min Rain = 0
KCL1 180738Z 17008KT 10/M02 A2992 RMK A01 T00971018  RH  045%=      5-min Rain = 0
KCL1 180739Z 17007KT 10/M02 A2992 RMK A01 T00981018  RH  044%=      5-min Rain = 0
KCL1 180740Z 17007KT 10/M02 A2992 RMK A01 T00991018  RH  044%=      5-min Rain = 0
KCL1 180741Z 19007KT 10/M02 A2991 RMK A01 T00961019  RH  044%=      5-min Rain = 0
KCL1 180742Z 20009KT 10/M02 A2991 RMK A01 T00951019  RH  045%=      5-min Rain = 0
KCL1 180743Z 17009KT 10/M02 A2991 RMK A01 T00951019  RH  045%=      5-min Rain = 0
KCL1 180744Z 18009KT 10/M02 A2991 RMK A01 T00961018  RH  045%=      5-min Rain = 0
KCL1 180745Z 17010KT 10/M02 A2991 RMK A01 T00971019  RH  044%=      5-min Rain = 0
KCL1 180746Z 17010KT 10/M02 A2991 RMK A01 T00971019  RH  044%=      5-min Rain = 0
KCL1 180747Z 17009KT 10/M02 A2991 RMK A01 T00951019  RH  045%=      5-min Rain = 0
KCL1 180748Z 17009KT 09/M02 A2991 RMK A01 T00931019  RH  045%=      5-min Rain = 0
KCL1 180749Z 16007KT 09/M02 A2991 RMK A01 T00921020  RH  045%=      5-min Rain = 0
KCL1 180750Z 15008KT 09/M02 A299 RMK A01 T00921020  RH  046%=      5-min Rain = 0
KCL1 180751Z 15008KT 09/M02 A2991 RMK A01 T00911020  RH  046%=      5-min Rain = 0
KCL1 180752Z 15009KT 09/M02 A299 RMK A01 T00901019  RH  046%=      5-min Rain = 0
KCL1 180753Z 15008KT 09/M02 A299 RMK A01 T00881019  RH  047%=      5-min Rain = 0
KCL1 180754Z 16010KT 09/M02 A299 RMK A01 T00861020  RH  047%=      5-min Rain = 0
KCL1 180755Z 15012KT 09/M02 A299 RMK A01 T00871019  RH  047%=      5-min Rain = 0
KCL1 180756Z 15009KT 09/M02 A299 RMK A01 T00881018  RH  047%=      5-min Rain = 0
KCL1 180757Z 15008KT 09/M02 A299 RMK A01 T00861019  RH  048%=      5-min Rain = 0
KCL1 180758Z 16008KT 08/M02 A299 RMK A01 T00831020  RH  048%=      5-min Rain = 0
KCL1 180759Z 15009KT 08/M02 A299 RMK A01 T00821020  RH  049%=      5-min Rain = 0
KCL1 180800Z 14011KT 08/M02 A299 RMK A01 T00811020  RH  049%=      5-min Rain = 0
KCL1 180801Z 15012KT 08/M02 A299 RMK A01 T00801020  RH  050%=      5-min Rain = 0
KCL1 180802Z 14012KT 08/M02 A299 RMK A01 T00811018  RH  050%=      5-min Rain = 0
KCL1 180803Z 14013KT 08/M02 A299 RMK A01 T00811019  RH  049%=      5-min Rain = 0
KCL1 180804Z 15011KT 08/M02 A299 RMK A01 T00821019  RH  049%=      5-min Rain = 0
KCL1 180805Z 14009KT 08/M02 A299 RMK A01 T00821019  RH  049%=      5-min Rain = 0
KCL1 180806Z 14010KT 08/M02 A299 RMK A01 T00821019  RH  049%=      5-min Rain = 0
KCL1 180807Z 14011KT 08/M02 A2989 RMK A01 T00811019  RH  049%=      5-min Rain = 0
KCL1 180808Z 14010KT 08/M02 A2989 RMK A01 T00811019  RH  049%=      5-min Rain = 0
KCL1 180809Z 14011KT 08/M02 A2989 RMK A01 T00811019  RH  049%=      5-min Rain = 0
KCL1 180810Z 15010KT 08/M02 A2989 RMK A01 T00821019  RH  049%=      5-min Rain = 0
KCL1 180811Z 15009KT 09/M02 A2989 RMK A01 T00861019  RH  048%=      5-min Rain = 0
KCL1 180812Z 16009KT 09/M02 A2989 RMK A01 T00881019  RH  047%=      5-min Rain = 0
KCL1 180813Z 15008KT 09/M02 A299 RMK A01 T00871020  RH  047%=      5-min Rain = 0
KCL1 180814Z 15008KT 09/M02 A299 RMK A01 T00871021  RH  047%=      5-min Rain = 0
KCL1 180815Z 15009KT 09/M02 A299 RMK A01 T00881021  RH  047%=      5-min Rain = 0
KCL1 180816Z 16008KT 09/M02 A299 RMK A01 T00881020  RH  046%=      5-min Rain = 0
KCL1 180817Z 15007KT 09/M02 A299 RMK A01 T00881021  RH  046%=      5-min Rain = 0
KCL1 180818Z 15009KT 09/M02 A299 RMK A01 T00861021  RH  047%=      5-min Rain = 0
KCL1 180819Z 15009KT 08/M02 A299 RMK A01 T00841021  RH  047%=      5-min Rain = 0
KCL1 180820Z 16010KT 08/M02 A299 RMK A01 T00831022  RH  048%=      5-min Rain = 0
KCL1 180821Z 16008KT 08/M02 A299 RMK A01 T00821022  RH  048%=      5-min Rain = 0
KCL1 180822Z 17007KT 08/M02 A299 RMK A01 T00821022  RH  048%=      5-min Rain = 0
KCL1 180823Z 16008KT 08/M02 A299 RMK A01 T00811022  RH  048%=      5-min Rain = 0
KCL1 180824Z 17009KT 08/M02 A299 RMK A01 T00801023  RH  048%=      5-min Rain = 0
KCL1 180825Z 18009KT 08/M02 A299 RMK A01 T00801023  RH  048%=      5-min Rain = 0
KCL1 180826Z 16009KT 09/M02 A2989 RMK A01 T00851022  RH  047%=      5-min Rain = 0
KCL1 180827Z 17008KT 09/M02 A2989 RMK A01 T00861022  RH  047%=      5-min Rain = 0
KCL1 180828Z 15010KT 08/M02 A2989 RMK A01 T00841023  RH  047%=      5-min Rain = 0
KCL1 180829Z 16010KT 08/M02 A2989 RMK A01 T00821022  RH  048%=      5-min Rain = 0
KCL1 180830Z 17009KT 08/M02 A299 RMK A01 T00811023  RH  048%=      5-min Rain = 0
KCL1 180831Z 17007KT 08/M02 A299 RMK A01 T00811023  RH  048%=      5-min Rain = 0
KCL1 180832Z 16009KT 08/M02 A2989 RMK A01 T00821023  RH  047%=      5-min Rain = 0
KCL1 180833Z 16009KT 08/M02 A2989 RMK A01 T00821023  RH  047%=      5-min Rain = 0
KCL1 180834Z 15008KT 08/M02 A2989 RMK A01 T00821023  RH  048%=      5-min Rain = 0
KCL1 180835Z 16009KT 08/M02 A2989 RMK A01 T00821023  RH  047%=      5-min Rain = 0
KCL1 180836Z 16008KT 08/M02 A2989 RMK A01 T00821024  RH  047%=      5-min Rain = 0
KCL1 180837Z 17007KT 08/M02 A2989 RMK A01 T00831024  RH  047%=      5-min Rain = 0
KCL1 180838Z 17008KT 08/M02 A2989 RMK A01 T00831024  RH  047%=      5-min Rain = 0
KCL1 180839Z 16005KT 08/M02 A2989 RMK A01 T00841024  RH  046%=      5-min Rain = 0
KCL1 180840Z 16009KT 08/M02 A2989 RMK A01 T00841024  RH  046%=      5-min Rain = 0
KCL1 180841Z 16008KT 08/M03 A2989 RMK A01 T00831025  RH  047%=      5-min Rain = 0
KCL1 180842Z 17007KT 08/M03 A2989 RMK A01 T00841025  RH  046%=      5-min Rain = 0
KCL1 180843Z 18008KT 09/M03 A2989 RMK A01 T00851025  RH  046%=      5-min Rain = 0
KCL1 180844Z 18007KT 09/M03 A2989 RMK A01 T00851026  RH  046%=      5-min Rain = 0
KCL1 180845Z 16007KT 09/M03 A2989 RMK A01 T00851026  RH  046%=      5-min Rain = 0
KCL1 180846Z 17008KT 08/M03 A2989 RMK A01 T00831026  RH  046%=      5-min Rain = 0
KCL1 180847Z 17009KT 08/M03 A2989 RMK A01 T00821026  RH  046%=      5-min Rain = 0
KCL1 180848Z 16008KT 08/M03 A2988 RMK A01 T00821026  RH  046%=      5-min Rain = 0
KCL1 180849Z 16009KT 08/M03 A2988 RMK A01 T00811026  RH  047%=      5-min Rain = 0
KCL1 180850Z 16008KT 08/M03 A2988 RMK A01 T00801026  RH  047%=      5-min Rain = 0
KCL1 180851Z 16007KT 08/M03 A2988 RMK A01 T00791026  RH  047%=      5-min Rain = 0
KCL1 180852Z 17006KT 08/M03 A2988 RMK A01 T00781026  RH  048%=      5-min Rain = 0
KCL1 180853Z 16005KT 08/M03 A2988 RMK A01 T00771026  RH  048%=      5-min Rain = 0
KCL1 180854Z 17006KT 08/M03 A2988 RMK A01 T00761027  RH  048%=      5-min Rain = 0
KCL1 180855Z 16006KT 08/M03 A2988 RMK A01 T00751027  RH  048%=      5-min Rain = 0
KCL1 180856Z 16007KT 07/M03 A2988 RMK A01 T00741027  RH  049%=      5-min Rain = 0
KCL1 180857Z 16007KT 07/M03 A2988 RMK A01 T00731028  RH  049%=      5-min Rain = 0
KCL1 180858Z 15006KT 07/M03 A2988 RMK A01 T00731028  RH  049%=      5-min Rain = 0
KCL1 180859Z 14006KT 07/M03 A2988 RMK A01 T00731028  RH  049%=      5-min Rain = 0
KCL1 180900Z 15008KT 07/M03 A2988 RMK A01 T00731027  RH  049%=      5-min Rain = 0
KCL1 180901Z 14008KT 07/M03 A2988 RMK A01 T00721027  RH  049%=      5-min Rain = 0
KCL1 180902Z 15009KT 07/M03 A2988 RMK A01 T00711027  RH  050%=      5-min Rain = 0
KCL1 180903Z 15008KT 07/M03 A2988 RMK A01 T00701027  RH  050%=      5-min Rain = 0
KCL1 180904Z 14008KT 07/M03 A2988 RMK A01 T00701027  RH  050%=      5-min Rain = 0
KCL1 180905Z 14008KT 07/M03 A2988 RMK A01 T00701027  RH  050%=      5-min Rain = 0
KCL1 180906Z 14010KT 07/M03 A2988 RMK A01 T00681028  RH  050%=      5-min Rain = 0
KCL1 180907Z 14009KT 07/M03 A2988 RMK A01 T00681028  RH  050%=      5-min Rain = 0
KCL1 180908Z 14011KT 07/M03 A2988 RMK A01 T00691027  RH  050%=      5-min Rain = 0
KCL1 180909Z 16009KT 07/M03 A2988 RMK A01 T00701027  RH  050%=      5-min Rain = 0
KCL1 180910Z 15009KT 07/M03 A2988 RMK A01 T00721026  RH  050%=      5-min Rain = 0
KCL1 180911Z 14010KT 07/M03 A2988 RMK A01 T00721027  RH  050%=      5-min Rain = 0
KCL1 180912Z 15009KT 07/M03 A2988 RMK A01 T00721027  RH  050%=      5-min Rain = 0
KCL1 180913Z 15010KT 07/M03 A2988 RMK A01 T00711027  RH  050%=      5-min Rain = 0
KCL1 180914Z 15009KT 07/M03 A2988 RMK A01 T00711027  RH  050%=      5-min Rain = 0
KCL1 180915Z 16009KT 07/M03 A2988 RMK A01 T00701027  RH  050%=      5-min Rain = 0
KCL1 180916Z 16008KT 07/M03 A2988 RMK A01 T00681028  RH  050%=      5-min Rain = 0
KCL1 180917Z 16008KT 07/M03 A2988 RMK A01 T00671028  RH  051%=      5-min Rain = 0
KCL1 180918Z 15009KT 07/M03 A2988 RMK A01 T00661028  RH  051%=      5-min Rain = 0
KCL1 180919Z 15009KT 07/M03 A2988 RMK A01 T00661027  RH  051%=      5-min Rain = 0
KCL1 180920Z 16011KT 07/M03 A2988 RMK A01 T00661027  RH  051%=      5-min Rain = 0
KCL1 180921Z 16010KT 07/M03 A2988 RMK A01 T00671027  RH  051%=      5-min Rain = 0
KCL1 180922Z 17010KT 07/M03 A2988 RMK A01 T00701026  RH  051%=      5-min Rain = 0
KCL1 180923Z 17009KT 07/M03 A2988 RMK A01 T00701026  RH  050%=      5-min Rain = 0
KCL1 180924Z 16010KT 07/M03 A2988 RMK A01 T00701026  RH  050%=      5-min Rain = 0
KCL1 180925Z 17009KT 07/M03 A2988 RMK A01 T00701026  RH  050%=      5-min Rain = 0
KCL1 180926Z 18008KT 07/M03 A2988 RMK A01 T00701026  RH  050%=      5-min Rain = 0
KCL1 180927Z 16009KT 07/M03 A2988 RMK A01 T00701026  RH  050%=      5-min Rain = 0
KCL1 180928Z 16009KT 07/M03 A2988 RMK A01 T00711026  RH  050%=      5-min Rain = 0
KCL1 180929Z 17008KT 07/M03 A2988 RMK A01 T00711026  RH  050%=      5-min Rain = 0
KCL1 180930Z 18007KT 07/M03 A2988 RMK A01 T00711026  RH  050%=      5-min Rain = 0
KCL1 180931Z 18007KT 07/M03 A2988 RMK A01 T00711026  RH  050%=      5-min Rain = 0
KCL1 180932Z 18008KT 07/M03 A2988 RMK A01 T00731026  RH  049%=      5-min Rain = 0
KCL1 180933Z 17008KT 07/M03 A2988 RMK A01 T00741026  RH  049%=      5-min Rain = 0
KCL1 180934Z 15008KT 07/M03 A2987 RMK A01 T00731026  RH  049%=      5-min Rain = 0
KCL1 180935Z 18008KT 07/M03 A2987 RMK A01 T00721027  RH  050%=      5-min Rain = 0
KCL1 180936Z 14008KT 07/M03 A2987 RMK A01 T00721027  RH  050%=      5-min Rain = 0
KCL1 180937Z 14007KT 07/M03 A2987 RMK A01 T00721026  RH  050%=      5-min Rain = 0
KCL1 180938Z 14006KT 07/M03 A2987 RMK A01 T00711026  RH  050%=      5-min Rain = 0
KCL1 180939Z 14006KT 07/M03 A2987 RMK A01 T00691027  RH  050%=      5-min Rain = 0
KCL1 180940Z 14007KT 07/M03 A2987 RMK A01 T00661028  RH  051%=      5-min Rain = 0
KCL1 180941Z 15008KT 06/M03 A2987 RMK A01 T00641028  RH  052%=      5-min Rain = 0
KCL1 180942Z 15007KT 06/M03 A2987 RMK A01 T00621028  RH  052%=      5-min Rain = 0
KCL1 180943Z 15007KT 06/M03 A2987 RMK A01 T00621028  RH  053%=      5-min Rain = 0
KCL1 180944Z 15006KT 06/M03 A2987 RMK A01 T00621027  RH  053%=      5-min Rain = 0
KCL1 180945Z 15006KT 06/M03 A2987 RMK A01 T00621027  RH  053%=      5-min Rain = 0
KCL1 180946Z 14006KT 06/M03 A2987 RMK A01 T00631026  RH  053%=      5-min Rain = 0
KCL1 180947Z 14006KT 06/M03 A2987 RMK A01 T00621027  RH  053%=      5-min Rain = 0
KCL1 180948Z 15006KT 06/M03 A2987 RMK A01 T00611027  RH  053%=      5-min Rain = 0
KCL1 180949Z 16006KT 06/M03 A2987 RMK A01 T00601027  RH  053%=      5-min Rain = 0
KCL1 180950Z 15005KT 06/M03 A2987 RMK A01 T00611027  RH  053%=      5-min Rain = 0
KCL1 180951Z 17003KT 06/M03 A2987 RMK A01 T00621026  RH  053%=      5-min Rain = 0
KCL1 180952Z 15004KT 06/M03 A2987 RMK A01 T00631026  RH  053%=      5-min Rain = 0
KCL1 180953Z 15005KT 06/M03 A2986 RMK A01 T00621027  RH  053%=      5-min Rain = 0
KCL1 180954Z 15005KT 06/M03 A2986 RMK A01 T00621027  RH  053%=      5-min Rain = 0
KCL1 180955Z 16004KT 06/M03 A2986 RMK A01 T00621027  RH  053%=      5-min Rain = 0
KCL1 180956Z 20007KT 06/M03 A2986 RMK A01 T00621027  RH  053%=      5-min Rain = 0
KCL1 180957Z 19005KT 07/M03 A2986 RMK A01 T00671027  RH  051%=      5-min Rain = 0
KCL1 180958Z 17004KT 07/M03 A2986 RMK A01 T00691027  RH  051%=      5-min Rain = 0
KCL1 180959Z 16003KT 07/M03 A2986 RMK A01 T00691027  RH  051%=      5-min Rain = 0
KCL1 181000Z 18006KT 07/M03 A2985 RMK A01 T00681027  RH  051%=      5-min Rain = 0
KCL1 181001Z 17006KT 07/M03 A2985 RMK A01 T00671028  RH  051%=      5-min Rain = 0
KCL1 181002Z 18006KT 07/M03 A2985 RMK A01 T00671030  RH  050%=      5-min Rain = 0
KCL1 181003Z 17006KT 07/M03 A2985 RMK A01 T00681029  RH  050%=      5-min Rain = 0
KCL1 181004Z 18006KT 07/M03 A2985 RMK A01 T00681029  RH  050%=      5-min Rain = 0
KCL1 181005Z 17006KT 07/M03 A2985 RMK A01 T00681030  RH  050%=      5-min Rain = 0
KCL1 181006Z 17005KT 07/M03 A2985 RMK A01 T00681029  RH  050%=      5-min Rain = 0
KCL1 181007Z 14005KT 07/M03 A2985 RMK A01 T00671029  RH  050%=      5-min Rain = 0
KCL1 181008Z 16004KT 07/M03 A2985 RMK A01 T00651029  RH  051%=      5-min Rain = 0
KCL1 181009Z 19008KT 07/M03 A2985 RMK A01 T00651029  RH  051%=      5-min Rain = 0
KCL1 181010Z 16005KT 07/M03 A2985 RMK A01 T00681029  RH  050%=      5-min Rain = 0
KCL1 181011Z 16004KT 07/M03 A2985 RMK A01 T00701029  RH  049%=      5-min Rain = 0
KCL1 181012Z 18006KT 07/M03 A2985 RMK A01 T00701029  RH  049%=      5-min Rain = 0
KCL1 181013Z 18006KT 07/M03 A2985 RMK A01 T00711029  RH  049%=      5-min Rain = 0
KCL1 181014Z 19007KT 07/M03 A2985 RMK A01 T00711031  RH  048%=      5-min Rain = 0
KCL1 181015Z 20007KT 07/M03 A2985 RMK A01 T00731031  RH  048%=      5-min Rain = 0
KCL1 181016Z 19006KT 07/M03 A2985 RMK A01 T00741031  RH  047%=      5-min Rain = 0
KCL1 181017Z 20008KT 08/M03 A2985 RMK A01 T00751032  RH  047%=      5-min Rain = 0
KCL1 181018Z 17007KT 08/M03 A2985 RMK A01 T00771032  RH  046%=      5-min Rain = 0
KCL1 181019Z 20008KT 08/M03 A2984 RMK A01 T00771031  RH  046%=      5-min Rain = 0
KCL1 181020Z 19009KT 08/M03 A2984 RMK A01 T00771033  RH  046%=      5-min Rain = 0
KCL1 181021Z 19007KT 08/M03 A2984 RMK A01 T00791033  RH  045%=      5-min Rain = 0
KCL1 181022Z 19007KT 08/M03 A2984 RMK A01 T00801033  RH  045%=      5-min Rain = 0
KCL1 181023Z 20006KT 08/M03 A2984 RMK A01 T00811033  RH  044%=      5-min Rain = 0
KCL1 181024Z 18007KT 08/M03 A2984 RMK A01 T00811033  RH  044%=      5-min Rain = 0
KCL1 181025Z 19007KT 08/M03 A2984 RMK A01 T00801033  RH  045%=      5-min Rain = 0
KCL1 181026Z 18006KT 08/M03 A2983 RMK A01 T00801033  RH  045%=      5-min Rain = 0
KCL1 181027Z 19007KT 08/M03 A2983 RMK A01 T00791033  RH  045%=      5-min Rain = 0
KCL1 181028Z 17005KT 08/M03 A2983 RMK A01 T00781033  RH  045%=      5-min Rain = 0
KCL1 181029Z 16005KT 08/M03 A2983 RMK A01 T00761033  RH  046%=      5-min Rain = 0
KCL1 181030Z 18007KT 07/M03 A2983 RMK A01 T00731033  RH  047%=      5-min Rain = 0
KCL1 181031Z 20006KT 07/M03 A2983 RMK A01 T00721033  RH  047%=      5-min Rain = 0
KCL1 181032Z 19006KT 07/M03 A2983 RMK A01 T00721034  RH  047%=      5-min Rain = 0
KCL1 181033Z 19007KT 08/M03 A2983 RMK A01 T00751034  RH  046%=      5-min Rain = 0
KCL1 181034Z 19007KT 08/M03 A2983 RMK A01 T00771034  RH  045%=      5-min Rain = 0
KCL1 181035Z 20006KT 08/M04 A2983 RMK A01 T00791035  RH  044%=      5-min Rain = 0
KCL1 181036Z 20005KT 08/M04 A2983 RMK A01 T00811035  RH  044%=      5-min Rain = 0
KCL1 181037Z 20006KT 08/M04 A2983 RMK A01 T00821035  RH  043%=      5-min Rain = 0
KCL1 181038Z 20004KT 08/M04 A2983 RMK A01 T00811036  RH  043%=      5-min Rain = 0
KCL1 181039Z 19004KT 08/M04 A2983 RMK A01 T00811036  RH  044%=      5-min Rain = 0
KCL1 181040Z 20006KT 08/M04 A2983 RMK A01 T00801036  RH  044%=      5-min Rain = 0
KCL1 181041Z 18006KT 08/M04 A2983 RMK A01 T00791037  RH  044%=      5-min Rain = 0
KCL1 181042Z 19006KT 08/M04 A2983 RMK A01 T00791037  RH  044%=      5-min Rain = 0
KCL1 181043Z 19005KT 08/M04 A2982 RMK A01 T00791037  RH  044%=      5-min Rain = 0
KCL1 181044Z 18005KT 08/M04 A2982 RMK A01 T00781037  RH  044%=      5-min Rain = 0
KCL1 181045Z 19005KT 08/M04 A2982 RMK A01 T00791037  RH  044%=      5-min Rain = 0
KCL1 181046Z 20005KT 08/M04 A2982 RMK A01 T00801037  RH  043%=      5-min Rain = 0
KCL1 181047Z 18006KT 08/M04 A2982 RMK A01 T00801038  RH  043%=      5-min Rain = 0
KCL1 181048Z 18005KT 08/M04 A2982 RMK A01 T00811037  RH  043%=      5-min Rain = 0
KCL1 181049Z 18006KT 08/M04 A2982 RMK A01 T00811037  RH  043%=      5-min Rain = 0
KCL1 181050Z 19005KT 08/M04 A2982 RMK A01 T00801037  RH  043%=      5-min Rain = 0
KCL1 181051Z 21005KT 08/M04 A2982 RMK A01 T00791037  RH  043%=      5-min Rain = 0
KCL1 181052Z 19006KT 08/M04 A2982 RMK A01 T00791038  RH  043%=      5-min Rain = 0
KCL1 181053Z 20007KT 08/M04 A2982 RMK A01 T00781038  RH  044%=      5-min Rain = 0
KCL1 181054Z 20006KT 08/M04 A2981 RMK A01 T00801038  RH  043%=      5-min Rain = 0
KCL1 181055Z 20005KT 08/M04 A2981 RMK A01 T00821038  RH  043%=      5-min Rain = 0
KCL1 181056Z 20005KT 08/M04 A2981 RMK A01 T00831038  RH  042%=      5-min Rain = 0
KCL1 181057Z 19006KT 08/M04 A2981 RMK A01 T00821038  RH  042%=      5-min Rain = 0
KCL1 181058Z 19006KT 08/M04 A2981 RMK A01 T00831039  RH  042%=      5-min Rain = 0
KCL1 181059Z 19007KT 08/M04 A2981 RMK A01 T00841039  RH  042%=      5-min Rain = 0
KCL1 181100Z 20009KT 09/M04 A2981 RMK A01 T00851038  RH  042%=      5-min Rain = 0
KCL1 181101Z 21008KT 09/M04 A2981 RMK A01 T00871038  RH  041%=      5-min Rain = 0
KCL1 181102Z 20009KT 09/M04 A2981 RMK A01 T00901037  RH  040%=      5-min Rain = 0
KCL1 181103Z 21009KT 09/M04 A2981 RMK A01 T00911037  RH  040%=      5-min Rain = 0
KCL1 181104Z 21007KT 09/M04 A2981 RMK A01 T00911038  RH  040%=      5-min Rain = 0
KCL1 181105Z 20007KT 09/M04 A2981 RMK A01 T00921038  RH  040%=      5-min Rain = 0
KCL1 181106Z 20007KT 09/M04 A298 RMK A01 T00921038  RH  040%=      5-min Rain = 0
KCL1 181107Z 20007KT 09/M04 A298 RMK A01 T00921037  RH  040%=      5-min Rain = 0
KCL1 181108Z 20008KT 09/M04 A298 RMK A01 T00921037  RH  040%=      5-min Rain = 0
KCL1 181109Z 20008KT 09/M04 A298 RMK A01 T00941037  RH  040%=      5-min Rain = 0
KCL1 181110Z 19008KT 10/M04 A298 RMK A01 T00951036  RH  040%=      5-min Rain = 0
KCL1 181111Z 18008KT 09/M04 A298 RMK A01 T00941036  RH  040%=      5-min Rain = 0
KCL1 181112Z 18008KT 09/M04 A298 RMK A01 T00921037  RH  040%=      5-min Rain = 0
KCL1 181113Z 19009KT 09/M04 A298 RMK A01 T00901037  RH  041%=      5-min Rain = 0
KCL1 181114Z 19010KT 09/M04 A298 RMK A01 T00891037  RH  041%=      5-min Rain = 0
KCL1 181115Z 20008KT 09/M04 A298 RMK A01 T00911036  RH  041%=      5-min Rain = 0
KCL1 181116Z 20011KT 09/M04 A298 RMK A01 T00921036  RH  040%=      5-min Rain = 0
KCL1 181117Z 20010KT 09/M04 A298 RMK A01 T00941036  RH  040%=      5-min Rain = 0
KCL1 181118Z 20009KT 10/M04 A2979 RMK A01 T00961036  RH  039%=      5-min Rain = 0
KCL1 181119Z 21006KT 10/M04 A2979 RMK A01 T00961036  RH  039%=      5-min Rain = 0
KCL1 181120Z 21010KT 10/M04 A2979 RMK A01 T00971036  RH  039%=      5-min Rain = 0
KCL1 181121Z 20011KT 10/M04 A2979 RMK A01 T00981036  RH  039%=      5-min Rain = 0
KCL1 181122Z 21007KT 10/M04 A2979 RMK A01 T01001036  RH  038%=      5-min Rain = 0
KCL1 181123Z 20008KT 10/M04 A2979 RMK A01 T01011036  RH  038%=      5-min Rain = 0
KCL1 181124Z 20004KT 10/M04 A2979 RMK A01 T01001036  RH  038%=      5-min Rain = 0
KCL1 181125Z 19006KT 10/M04 A2979 RMK A01 T00991036  RH  039%=      5-min Rain = 0
KCL1 181126Z 19007KT 10/M04 A2979 RMK A01 T00961036  RH  039%=      5-min Rain = 0
KCL1 181127Z 19007KT 09/M04 A2978 RMK A01 T00941036  RH  040%=      5-min Rain = 0
KCL1 181128Z 21010KT 10/M04 A2978 RMK A01 T00961035  RH  040%=      5-min Rain = 0
KCL1 181129Z 21009KT 10/M03 A2978 RMK A01 T01001034  RH  039%=      5-min Rain = 0
KCL1 181130Z 22008KT 10/M03 A2978 RMK A01 T01031034  RH  038%=      5-min Rain = 0
KCL1 181131Z 23006KT 10/M03 A2978 RMK A01 T01041034  RH  038%=      5-min Rain = 0
KCL1 181132Z 21009KT 11/M03 A2978 RMK A01 T01051034  RH  038%=      5-min Rain = 0
KCL1 181133Z 21006KT 10/M04 A2978 RMK A01 T01041035  RH  038%=      5-min Rain = 0
KCL1 181134Z 21005KT 10/M03 A2978 RMK A01 T01041034  RH  038%=      5-min Rain = 0
KCL1 181135Z 21006KT 10/M03 A2978 RMK A01 T01041034  RH  038%=      5-min Rain = 0
KCL1 181136Z 19008KT 10/M03 A2978 RMK A01 T01041034  RH  038%=      5-min Rain = 0
KCL1 181137Z 20007KT 10/M03 A2978 RMK A01 T01041034  RH  038%=      5-min Rain = 0
KCL1 181138Z 22007KT 10/M03 A2978 RMK A01 T01021034  RH  038%=      5-min Rain = 0
KCL1 181139Z 22011KT 10/M03 A2978 RMK A01 T01021034  RH  038%=      5-min Rain = 0
KCL1 181140Z 21009KT 10/M03 A2978 RMK A01 T01041033  RH  038%=      5-min Rain = 0
KCL1 181141Z 22009KT 11/M03 A2978 RMK A01 T01051034  RH  038%=      5-min Rain = 0
KCL1 181142Z 23008G13KT 11/M03 A2978 RMK A01 T01061033  RH  037%=      5-min Rain = 0
KCL1 181143Z 22009KT 11/M03 A2977 RMK A01 T01061033  RH  037%=      5-min Rain = 0
KCL1 181144Z 22007KT 11/M03 A2977 RMK A01 T01071033  RH  037%=      5-min Rain = 0
KCL1 181145Z 23008KT 11/M03 A2977 RMK A01 T01071033  RH  037%=      5-min Rain = 0
KCL1 181146Z 22010KT 11/M03 A2977 RMK A01 T01071033  RH  037%=      5-min Rain = 0
KCL1 181147Z 22006KT 11/M03 A2977 RMK A01 T01081032  RH  037%=      5-min Rain = 0
KCL1 181148Z 22008G13KT 11/M03 A2977 RMK A01 T01081032  RH  037%=      5-min Rain = 0
KCL1 181149Z 23009G14KT 11/M03 A2977 RMK A01 T01071033  RH  037%=      5-min Rain = 0
KCL1 181150Z 22009G14KT 11/M03 A2977 RMK A01 T01081032  RH  037%=      5-min Rain = 0
KCL1 181151Z 24010G16KT 11/M03 A2977 RMK A01 T01081032  RH  037%=      5-min Rain = 0
KCL1 181152Z 23012G17KT 11/M03 A2977 RMK A01 T01081032  RH  037%=      5-min Rain = 0
KCL1 181153Z 22008KT 11/M03 A2977 RMK A01 T01081032  RH  037%=      5-min Rain = 0
KCL1 181154Z 23010G15KT 11/M03 A2977 RMK A01 T01081032  RH  037%=      5-min Rain = 0
KCL1 181155Z 24009KT 11/M03 A2977 RMK A01 T01081033  RH  037%=      5-min Rain = 0
KCL1 181156Z 23012G17KT 11/M03 A2976 RMK A01 T01081033  RH  037%=      5-min Rain = 0
KCL1 181157Z 23008KT 11/M03 A2976 RMK A01 T01091032  RH  037%=      5-min Rain = 0
KCL1 181158Z 22005KT 11/M03 A2976 RMK A01 T01081032  RH  037%=      5-min Rain = 0
KCL1 181159Z 22007G13KT 11/M03 A2976 RMK A01 T01071033  RH  037%=      5-min Rain = 0
KCL1 181200Z 22011KT 11/M03 A2976 RMK A01 T01071033  RH  037%=      5-min Rain = 0
KCL1 181201Z 23009KT 11/M03 A2976 RMK A01 T01081033  RH  037%=      5-min Rain = 0
KCL1 181202Z 23011KT 11/M03 A2976 RMK A01 T01081033  RH  037%=      5-min Rain = 0
KCL1 181203Z 23011KT 11/M03 A2976 RMK A01 T01081032  RH  037%=      5-min Rain = 0
KCL1 181204Z 24011KT 11/M03 A2976 RMK A01 T01081032  RH  037%=      5-min Rain = 0
KCL1 181205Z 22007KT 11/M03 A2976 RMK A01 T01081033  RH  037%=      5-min Rain = 0
KCL1 181206Z 24011KT 11/M03 A2976 RMK A01 T01081033  RH  037%=      5-min Rain = 0
KCL1 181207Z 24011KT 11/M03 A2976 RMK A01 T01081033  RH  037%=      5-min Rain = 0
KCL1 181208Z 24017KT 11/M03 A2976 RMK A01 T01081033  RH  037%=      5-min Rain = 0
KCL1 181209Z 24014G19KT 11/M03 A2976 RMK A01 T01081032  RH  037%=      5-min Rain = 0
KCL1 181210Z 24017G22KT 11/M03 A2976 RMK A01 T01081033  RH  037%=      5-min Rain = 0
KCL1 181211Z 24017KT 11/M03 A2976 RMK A01 T01081033  RH  037%=      5-min Rain = 0
KCL1 181212Z 23012KT 11/M03 A2976 RMK A01 T01081032  RH  037%=      5-min Rain = 0
KCL1 181213Z 24015G22KT 11/M03 A2975 RMK A01 T01081032  RH  037%=      5-min Rain = 0
KCL1 181214Z 24015G24KT 11/M03 A2975 RMK A01 T01081032  RH  037%=      5-min Rain = 0
KCL1 181215Z 24012KT 11/M03 A2975 RMK A01 T01081032  RH  037%=      5-min Rain = 0
KCL1 181216Z 25014KT 11/M03 A2975 RMK A01 T01091031  RH  037%=      5-min Rain = 0
KCL1 181217Z 24014G21KT 11/M03 A2975 RMK A01 T01091031  RH  037%=      5-min Rain = 0
KCL1 181218Z 24015G20KT 11/M03 A2975 RMK A01 T01091031  RH  037%=      5-min Rain = 0
KCL1 181219Z 24016G22KT 11/M03 A2975 RMK A01 T01091031  RH  037%=      5-min Rain = 0
KCL1 181220Z 25015G20KT 11/M03 A2975 RMK A01 T01091031  RH  037%=      5-min Rain = 0
KCL1 181221Z 24015G22KT 11/M03 A2975 RMK A01 T01091031  RH  037%=      5-min Rain = 0
KCL1 181222Z 24017KT 11/M03 A2975 RMK A01 T01091030  RH  038%=      5-min Rain = 0
KCL1 181223Z 24016KT 11/M03 A2975 RMK A01 T01091030  RH  038%=      5-min Rain = 0
KCL1 181224Z 24016G22KT 11/M03 A2975 RMK A01 T01091030  RH  038%=      5-min Rain = 0
KCL1 181225Z 24018G23KT 11/M03 A2975 RMK A01 T01091029  RH  038%=      5-min Rain = 0
KCL1 181226Z 25016G23KT 11/M03 A2976 RMK A01 T01081030  RH  038%=      5-min Rain = 0
KCL1 181227Z 24019KT 11/M03 A2975 RMK A01 T01091029  RH  038%=      5-min Rain = 0
KCL1 181228Z 24017G22KT 11/M03 A2976 RMK A01 T01091029  RH  038%=      5-min Rain = 0
KCL1 181229Z 25014G21KT 11/M03 A2975 RMK A01 T01091029  RH  038%=      5-min Rain = 0
KCL1 181230Z 24014G19KT 11/M03 A2976 RMK A01 T01091029  RH  038%=      5-min Rain = 0
KCL1 181231Z 23017KT 11/M03 A2976 RMK A01 T01081029  RH  038%=      5-min Rain = 0
KCL1 181232Z 25015G23KT 11/M03 A2976 RMK A01 T01091029  RH  038%=      5-min Rain = 0
KCL1 181233Z 24017G25KT 11/M03 A2976 RMK A01 T01091029  RH  038%=      5-min Rain = 0
KCL1 181234Z 24015G22KT 11/M03 A2976 RMK A01 T01091029  RH  038%=      5-min Rain = 0
KCL1 181235Z 24017G25KT 11/M03 A2976 RMK A01 T01091028  RH  038%=      5-min Rain = 0
KCL1 181236Z 24013G18KT 11/M03 A2976 RMK A01 T01091028  RH  038%=      5-min Rain = 0
KCL1 181237Z 24014KT 11/M03 A2976 RMK A01 T01091028  RH  038%=      5-min Rain = 0
KCL1 181238Z 25016G22KT 11/M03 A2976 RMK A01 T01091028  RH  038%=      5-min Rain = 0
KCL1 181239Z 25015KT 11/M03 A2976 RMK A01 T01091028  RH  038%=      5-min Rain = 0
KCL1 181240Z 24016G23KT 11/M03 A2976 RMK A01 T01091028  RH  038%=      5-min Rain = 0
KCL1 181241Z 24014G19KT 11/M03 A2976 RMK A01 T01091027  RH  038%=      5-min Rain = 0
KCL1 181242Z 25011KT 11/M03 A2976 RMK A01 T01091027  RH  038%=      5-min Rain = 0
KCL1 181243Z 24010KT 11/M03 A2976 RMK A01 T01091027  RH  039%=      5-min Rain = 0
KCL1 181244Z 23014G19KT 11/M03 A2976 RMK A01 T01081027  RH  039%=      5-min Rain = 0
KCL1 181245Z 25013KT 11/M03 A2976 RMK A01 T01081027  RH  039%=      5-min Rain = 0
KCL1 181246Z 24014G19KT 11/M03 A2976 RMK A01 T01091026  RH  039%=      5-min Rain = 0
KCL1 181247Z 24015KT 11/M03 A2976 RMK A01 T01081026  RH  039%=      5-min Rain = 0
KCL1 181248Z 24017G24KT 11/M03 A2976 RMK A01 T01091026  RH  039%=      5-min Rain = 0
KCL1 181249Z 25015KT 11/M03 A2976 RMK A01 T01101025  RH  039%=      5-min Rain = 0
KCL1 181250Z 24017KT 11/M03 A2976 RMK A01 T01101025  RH  039%=      5-min Rain = 0
KCL1 181251Z 24016KT 11/M03 A2976 RMK A01 T01101025  RH  039%=      5-min Rain = 0
KCL1 181252Z 24016G21KT 11/M03 A2976 RMK A01 T01101025  RH  039%=      5-min Rain = 0
KCL1 181253Z 24016G21KT 11/M03 A2975 RMK A01 T01101025  RH  039%=      5-min Rain = 0
KCL1 181254Z 25015G20KT 11/M03 A2975 RMK A01 T01101025  RH  039%=      5-min Rain = 0
KCL1 181255Z 24015G24KT 11/M02 A2976 RMK A01 T01101024  RH  039%=      5-min Rain = 0
KCL1 181256Z 24013KT 11/M02 A2976 RMK A01 T01101024  RH  039%=      5-min Rain = 0
KCL1 181257Z 23012KT 11/M02 A2976 RMK A01 T01091024  RH  039%=      5-min Rain = 0
KCL1 181258Z 24012G19KT 11/M02 A2976 RMK A01 T01091024  RH  039%=      5-min Rain = 0
KCL1 181259Z 24015KT 11/M02 A2975 RMK A01 T01091024  RH  039%=      5-min Rain = 0
KCL1 181300Z 24014KT 11/M02 A2975 RMK A01 T01081024  RH  039%=      5-min Rain = 0
KCL1 181301Z 24013G18KT 11/M02 A2976 RMK A01 T01081024  RH  039%=      5-min Rain = 0
KCL1 181302Z 23013G18KT 11/M02 A2976 RMK A01 T01081024  RH  040%=      5-min Rain = 0
KCL1 181303Z 25014KT 11/M02 A2976 RMK A01 T01081024  RH  040%=      5-min Rain = 0
KCL1 181304Z 24012G18KT 11/M02 A2976 RMK A01 T01071024  RH  040%=      5-min Rain = 0
KCL1 181305Z 24018G24KT 11/M02 A2975 RMK A01 T01071024  RH  040%=      5-min Rain = 0
KCL1 181306Z 23017G22KT 11/M02 A2975 RMK A01 T01071024  RH  040%=      5-min Rain = 0
KCL1 181307Z 24014G22KT 11/M02 A2975 RMK A01 T01081024  RH  040%=      5-min Rain = 0
KCL1 181308Z 24011G16KT 11/M02 A2976 RMK A01 T01081024  RH  040%=      5-min Rain = 0
KCL1 181309Z 24012KT 11/M02 A2975 RMK A01 T01071024  RH  040%=      5-min Rain = 0
KCL1 181310Z 25014KT 11/M02 A2975 RMK A01 T01061024  RH  040%=      5-min Rain = 0
KCL1 181311Z 24012G18KT 11/M02 A2975 RMK A01 T01061024  RH  040%=      5-min Rain = 0
KCL1 181312Z 24014G20KT 11/M02 A2975 RMK A01 T01061024  RH  040%=      5-min Rain = 0
KCL1 181313Z 24016KT 11/M02 A2975 RMK A01 T01061024  RH  040%=      5-min Rain = 0
KCL1 181314Z 24014KT 11/M02 A2975 RMK A01 T01061024  RH  040%=      5-min Rain = 0
KCL1 181315Z 24013G18KT 11/M02 A2975 RMK A01 T01061024  RH  040%=      5-min Rain = 0
KCL1 181316Z 24016KT 11/M02 A2975 RMK A01 T01051024  RH  040%=      5-min Rain = 0
KCL1 181317Z 23016KT 11/M02 A2975 RMK A01 T01051024  RH  040%=      5-min Rain = 0
KCL1 181318Z 24012KT 11/M02 A2975 RMK A01 T01051024  RH  040%=      5-min Rain = 0
KCL1 181319Z 24015G21KT 11/M02 A2975 RMK A01 T01051024  RH  040%=      5-min Rain = 0
KCL1 181320Z 24013G18KT 11/M02 A2975 RMK A01 T01051024  RH  040%=      5-min Rain = 0
KCL1 181321Z 24013KT 11/M02 A2975 RMK A01 T01051024  RH  040%=      5-min Rain = 0
KCL1 181322Z 24012G17KT 11/M02 A2975 RMK A01 T01051024  RH  040%=      5-min Rain = 0
KCL1 181323Z 24013G18KT 11/M02 A2975 RMK A01 T01051024  RH  040%=      5-min Rain = 0
KCL1 181324Z 25014G22KT 10/M02 A2975 RMK A01 T01041024  RH  041%=      5-min Rain = 0
KCL1 181325Z 25016KT 10/M02 A2975 RMK A01 T01041024  RH  041%=      5-min Rain = 0
KCL1 181326Z 25012KT 10/M02 A2975 RMK A01 T01041023  RH  041%=      5-min Rain = 0
KCL1 181327Z 25014KT 10/M02 A2975 RMK A01 T01041024  RH  041%=      5-min Rain = 0
KCL1 181328Z 25013G19KT 10/M02 A2975 RMK A01 T01031024  RH  041%=      5-min Rain = 0
KCL1 181329Z 24015KT 10/M02 A2975 RMK A01 T01031023  RH  041%=      5-min Rain = 0
KCL1 181330Z 24014G19KT 10/M02 A2975 RMK A01 T01031024  RH  041%=      5-min Rain = 0
KCL1 181331Z 23013KT 10/M02 A2975 RMK A01 T01031024  RH  041%=      5-min Rain = 0
KCL1 181332Z 23012G17KT 10/M02 A2975 RMK A01 T01031024  RH  041%=      5-min Rain = 0
KCL1 181333Z 24014G20KT 10/M02 A2975 RMK A01 T01031024  RH  041%=      5-min Rain = 0
KCL1 181334Z 25017G22KT 10/M02 A2975 RMK A01 T01041023  RH  041%=      5-min Rain = 0
KCL1 181335Z 24015G22KT 11/M02 A2975 RMK A01 T01051023  RH  041%=      5-min Rain = 0
KCL1 181336Z 24014KT 11/M02 A2975 RMK A01 T01061023  RH  040%=      5-min Rain = 0
KCL1 181337Z 24013KT 11/M02 A2975 RMK A01 T01061023  RH  040%=      5-min Rain = 0
KCL1 181338Z 24014G20KT 11/M02 A2975 RMK A01 T01061023  RH  040%=      5-min Rain = 0
KCL1 181339Z 24012KT 11/M02 A2975 RMK A01 T01061023  RH  040%=      5-min Rain = 0
KCL1 181340Z 24014G19KT 11/M02 A2975 RMK A01 T01061023  RH  040%=      5-min Rain = 0
KCL1 181341Z 24015G20KT 11/M02 A2975 RMK A01 T01061023  RH  040%=      5-min Rain = 0
KCL1 181342Z 23015KT 11/M02 A2975 RMK A01 T01071023  RH  040%=      5-min Rain = 0
KCL1 181343Z 24012KT 11/M02 A2975 RMK A01 T01081023  RH  040%=      5-min Rain = 0
KCL1 181344Z 23012KT 11/M02 A2975 RMK A01 T01081023  RH  040%=      5-min Rain = 0
KCL1 181345Z 24012KT 11/M02 A2975 RMK A01 T01071023  RH  040%=      5-min Rain = 0
KCL1 181346Z 24013G19KT 11/M02 A2975 RMK A01 T01071023  RH  040%=      5-min Rain = 0
KCL1 181347Z 24011KT 11/M02 A2975 RMK A01 T01071024  RH  040%=      5-min Rain = 0
KCL1 181348Z 25012KT 11/M02 A2974 RMK A01 T01071024  RH  040%=      5-min Rain = 0
KCL1 181349Z 24010KT 11/M02 A2975 RMK A01 T01071023  RH  040%=      5-min Rain = 0
KCL1 181350Z 24012G19KT 11/M02 A2974 RMK A01 T01081023  RH  040%=      5-min Rain = 0
KCL1 181351Z 25010G15KT 11/M02 A2974 RMK A01 T01081023  RH  040%=      5-min Rain = 0
KCL1 181352Z 24013KT 11/M02 A2975 RMK A01 T01081023  RH  040%=      5-min Rain = 0
KCL1 181353Z 23014KT 11/M02 A2974 RMK A01 T01091023  RH  040%=      5-min Rain = 0
KCL1 181354Z 24010KT 11/M02 A2975 RMK A01 T01091023  RH  040%=      5-min Rain = 0
KCL1 181355Z 24011G17KT 11/M02 A2975 RMK A01 T01081023  RH  040%=      5-min Rain = 0
KCL1 181356Z 22011KT 11/M02 A2974 RMK A01 T01081023  RH  040%=      5-min Rain = 0
KCL1 181357Z 23013KT 11/M02 A2974 RMK A01 T01081023  RH  040%=      5-min Rain = 0
KCL1 181358Z 23010KT 11/M02 A2974 RMK A01 T01081024  RH  040%=      5-min Rain = 0
KCL1 181359Z 22015KT 11/M02 A2974 RMK A01 T01081023  RH  040%=      5-min Rain = 0
KCL1 181400Z 22011KT 11/M02 A2974 RMK A01 T01081023  RH  040%=      5-min Rain = 0
KCL1 181401Z 24012G17KT 11/M02 A2974 RMK A01 T01081023  RH  040%=      5-min Rain = 0
KCL1 181402Z 24015KT 11/M02 A2974 RMK A01 T01071023  RH  040%=      5-min Rain = 0
KCL1 181403Z 24013KT 11/M02 A2974 RMK A01 T01081023  RH  040%=      5-min Rain = 0
KCL1 181404Z 24012G24KT 11/M02 A2974 RMK A01 T01081023  RH  040%=      5-min Rain = 0
KCL1 181405Z 24020G27KT 11/M02 A2974 RMK A01 T01081023  RH  040%=      5-min Rain = 0
KCL1 181406Z 24016KT 11/M02 A2974 RMK A01 T01081023  RH  040%=      5-min Rain = 0
KCL1 181407Z 24015G22KT 11/M02 A2974 RMK A01 T01081023  RH  040%=      5-min Rain = 0
KCL1 181408Z 24018G23KT 11/M02 A2974 RMK A01 T01071023  RH  040%=      5-min Rain = 0
KCL1 181409Z 24018KT 11/M02 A2974 RMK A01 T01071023  RH  040%=      5-min Rain = 0
KCL1 181410Z 24018KT 11/M02 A2974 RMK A01 T01061023  RH  040%=      5-min Rain = 0
KCL1 181411Z 24017G24KT 11/M02 A2974 RMK A01 T01061023  RH  041%=      5-min Rain = 0
KCL1 181412Z 24012G17KT 11/M02 A2974 RMK A01 T01061023  RH  041%=      5-min Rain = 0
KCL1 181413Z 23017G22KT 11/M02 A2974 RMK A01 T01051023  RH  041%=      5-min Rain = 0
KCL1 181414Z 24017KT 10/M02 A2974 RMK A01 T01041023  RH  041%=      5-min Rain = 0
KCL1 181415Z 25017G24KT 10/M02 A2974 RMK A01 T01041023  RH  041%=      5-min Rain = 0
KCL1 181416Z 25015KT 10/M02 A2974 RMK A01 T01031023  RH  041%=      5-min Rain = 0
KCL1 181417Z 25017KT 10/M02 A2974 RMK A01 T01031022  RH  042%=      5-min Rain = 0
KCL1 181418Z 24018KT 10/M02 A2974 RMK A01 T01021022  RH  042%=      5-min Rain = 0
KCL1 181419Z 25016KT 10/M02 A2974 RMK A01 T01021022  RH  042%=      5-min Rain = 0
KCL1 181420Z 25014G20KT 10/M02 A2974 RMK A01 T01011022  RH  042%=      5-min Rain = 0
KCL1 181421Z 24015KT 10/M02 A2974 RMK A01 T01011021  RH  042%=      5-min Rain = 0
KCL1 181422Z 25016G26KT 10/M02 A2974 RMK A01 T01011021  RH  042%=      5-min Rain = 0
KCL1 181423Z 25016G22KT 10/M02 A2974 RMK A01 T01011021  RH  042%=      5-min Rain = 0
KCL1 181424Z 24014KT 10/M02 A2974 RMK A01 T01011020  RH  043%=      5-min Rain = 0
KCL1 181425Z 25015G20KT 10/M02 A2974 RMK A01 T01011020  RH  043%=      5-min Rain = 0
KCL1 181426Z 24018KT 10/M02 A2973 RMK A01 T01011019  RH  043%=      5-min Rain = 0
KCL1 181427Z 26017G28KT 10/M02 A2973 RMK A01 T01031018  RH  043%=      5-min Rain = 0
KCL1 181428Z 25018G24KT 10/M02 A2974 RMK A01 T01041017  RH  043%=      5-min Rain = 0
KCL1 181429Z 24016G23KT 11/M02 A2974 RMK A01 T01061017  RH  042%=      5-min Rain = 0
KCL1 181430Z 25013KT 11/M02 A2974 RMK A01 T01061017  RH  042%=      5-min Rain = 0
KCL1 181431Z 25014KT 11/M02 A2974 RMK A01 T01061017  RH  042%=      5-min Rain = 0
KCL1 181432Z 25020G26KT 11/M02 A2974 RMK A01 T01061016  RH  043%=      5-min Rain = 0
KCL1 181433Z 24015G23KT 11/M02 A2974 RMK A01 T01081015  RH  042%=      5-min Rain = 0
KCL1 181434Z 24018KT 11/M01 A2973 RMK A01 T01091014  RH  042%=      5-min Rain = 0
KCL1 181435Z 24017G24KT 11/M01 A2974 RMK A01 T01091014  RH  042%=      5-min Rain = 0
KCL1 181436Z 24019KT 11/M01 A2974 RMK A01 T01101014  RH  042%=      5-min Rain = 0
KCL1 181437Z 25020G30KT 11/M01 A2974 RMK A01 T01111013  RH  042%=      5-min Rain = 0
KCL1 181438Z 24016G21KT 11/M01 A2974 RMK A01 T01121012  RH  042%=      5-min Rain = 0
KCL1 181439Z 24015KT 11/M01 A2974 RMK A01 T01131012  RH  042%=      5-min Rain = 0
KCL1 181440Z 25016G25KT 11/M01 A2974 RMK A01 T01131012  RH  042%=      5-min Rain = 0
KCL1 181441Z 24016G23KT 11/M01 A2974 RMK A01 T01141011  RH  042%=      5-min Rain = 0
KCL1 181442Z 24021G27KT 12/M01 A2973 RMK A01 T01151010  RH  042%=      5-min Rain = 0
KCL1 181443Z 25019G28KT 12/M01 A2973 RMK A01 T01171009  RH  042%=      5-min Rain = 0
KCL1 181444Z 25021G26KT 12/M01 A2973 RMK A01 T01181009  RH  041%=      5-min Rain = 0
KCL1 181445Z 25021G30KT 12/M01 A2973 RMK A01 T01191009  RH  041%=      5-min Rain = 0
KCL1 181446Z 25021KT 12/M01 A2973 RMK A01 T01211007  RH  041%=      5-min Rain = 0
KCL1 181447Z 25019G26KT 12/M01 A2973 RMK A01 T01221007  RH  041%=      5-min Rain = 0
KCL1 181448Z 25021G26KT 12/M01 A2973 RMK A01 T01231006  RH  041%=      5-min Rain = 0
KCL1 181449Z 24018G24KT 12/M01 A2973 RMK A01 T01241006  RH  041%=      5-min Rain = 0
KCL1 181450Z 24020G28KT 12/M01 A2973 RMK A01 T01241006  RH  041%=      5-min Rain = 0
KCL1 181451Z 25021G34KT 12/M01 A2973 RMK A01 T01241006  RH  041%=      5-min Rain = 0
KCL1 181452Z 26020G26KT 13/M01 A2973 RMK A01 T01251006  RH  040%=      5-min Rain = 0
KCL1 181453Z 26016G22KT 13/M01 A2973 RMK A01 T01251006  RH  040%=      5-min Rain = 0
KCL1 181454Z 24015G23KT 13/M01 A2973 RMK A01 T01261005  RH  040%=      5-min Rain = 0
KCL1 181455Z 26019G25KT 13/M01 A2973 RMK A01 T01261005  RH  040%=      5-min Rain = 0
KCL1 181456Z 25019G31KT 13/M01 A2972 RMK A01 T01261005  RH  040%=      5-min Rain = 0
KCL1 181457Z 25019G29KT 13/M00 A2973 RMK A01 T01271004  RH  040%=      5-min Rain = 0
KCL1 181458Z 26018G24KT 13/M00 A2973 RMK A01 T01281004  RH  040%=      5-min Rain = 0
KCL1 181459Z 24018G27KT 13/M00 A2973 RMK A01 T01281004  RH  040%=      5-min Rain = 0
KCL1 181500Z 25020G28KT 13/M00 A2973 RMK A01 T01281004  RH  040%=      5-min Rain = 0
KCL1 181501Z 26025G36KT 13/M00 A2972 RMK A01 T01281004  RH  040%=      5-min Rain = 0
KCL1 181502Z 24021G28KT 13/M00 A2972 RMK A01 T01291004  RH  040%=      5-min Rain = 0
KCL1 181503Z 25017KT 13/M00 A2973 RMK A01 T01291003  RH  040%=      5-min Rain = 0
KCL1 181504Z 26017G23KT 13/M00 A2973 RMK A01 T01291003  RH  040%=      5-min Rain = 0
KCL1 181505Z 23018G24KT 13/M00 A2973 RMK A01 T01291003  RH  040%=      5-min Rain = 0
KCL1 181506Z 25016G21KT 13/M00 A2973 RMK A01 T01291003  RH  040%=      5-min Rain = 0
KCL1 181507Z 24016G24KT 13/M00 A2973 RMK A01 T01281003  RH  040%=      5-min Rain = 0
KCL1 181508Z 26023G32KT 13/M00 A2973 RMK A01 T01281003  RH  040%=      5-min Rain = 0
KCL1 181509Z 24014G23KT 13/M00 A2973 RMK A01 T01291003  RH  040%=      5-min Rain = 0
KCL1 181510Z 26020G30KT 13/M00 A2972 RMK A01 T01291003  RH  040%=      5-min Rain = 0
KCL1 181511Z 25023G29KT 13/M00 A2972 RMK A01 T01291002  RH  041%=      5-min Rain = 0
KCL1 181512Z 25020KT 13/M00 A2973 RMK A01 T01291002  RH  041%=      5-min Rain = 0
KCL1 181513Z 25018G25KT 13/M00 A2972 RMK A01 T01291002  RH  041%=      5-min Rain = 0
KCL1 181514Z 24017G25KT 13/M00 A2972 RMK A01 T01291002  RH  041%=      5-min Rain = 0
KCL1 181515Z 24019G30KT 13/M00 A2973 RMK A01 T01291001  RH  041%=      5-min Rain = 0
KCL1 181516Z 26020G28KT 13/M00 A2973 RMK A01 T01291001  RH  041%=      5-min Rain = 0
KCL1 181517Z 25015G21KT 13/M00 A2973 RMK A01 T01291001  RH  041%=      5-min Rain = 0
KCL1 181518Z 25017KT 13/M00 A2973 RMK A01 T01291001  RH  041%=      5-min Rain = 0
KCL1 181519Z 24021KT 13/00 A2972 RMK A01 T012900-0  RH  041%=      5-min Rain = 0
KCL1 181520Z 25018G25KT 13/M00 A2973 RMK A01 T01281001  RH  041%=      5-min Rain = 0
KCL1 181521Z 25018G26KT 13/M00 A2973 RMK A01 T01281001  RH  041%=      5-min Rain = 0
KCL1 181522Z 23019G25KT 13/M00 A2972 RMK A01 T01281001  RH  041%=      5-min Rain = 0
KCL1 181523Z 25017G22KT 13/00 A2973 RMK A01 T012800-0  RH  041%=      5-min Rain = 0
KCL1 181524Z 24020G28KT 13/M00 A2972 RMK A01 T01271001  RH  041%=      5-min Rain = 0
KCL1 181525Z 24021KT 13/00 A2972 RMK A01 T012700-0  RH  042%=      5-min Rain = 0
KCL1 181526Z 24022G30KT 13/00 A2972 RMK A01 T012800-0  RH  041%=      5-min Rain = 0
KCL1 181527Z 25017G29KT 13/00 A2972 RMK A01 T012700-0  RH  041%=      5-min Rain = 0
KCL1 181528Z 24015G28KT 13/M00 A2973 RMK A01 T01271001  RH  042%=      5-min Rain = 0
KCL1 181529Z 25019KT 13/00 A2973 RMK A01 T012700-0  RH  042%=      5-min Rain = 0
KCL1 181530Z 25017G22KT 13/00 A2973 RMK A01 T012700-0  RH  042%=      5-min Rain = 0
KCL1 181531Z 26016G28KT 13/00 A2973 RMK A01 T01260000  RH  042%=      5-min Rain = 0
KCL1 181532Z 24020G29KT 13/00 A2973 RMK A01 T01260000  RH  042%=      5-min Rain = 0
KCL1 181533Z 25020G30KT 13/00 A2973 RMK A01 T01270001  RH  042%=      5-min Rain = 0
KCL1 181534Z 25019G27KT 13/00 A2973 RMK A01 T01270001  RH  042%=      5-min Rain = 0
KCL1 181535Z 24017G23KT 13/00 A2973 RMK A01 T01270001  RH  042%=      5-min Rain = 0
KCL1 181536Z 24020G28KT 13/00 A2973 RMK A01 T01270001  RH  042%=      5-min Rain = 0
KCL1 181537Z 25021G27KT 13/00 A2973 RMK A01 T01270001  RH  042%=      5-min Rain = 0
KCL1 181538Z 25019G26KT 13/00 A2973 RMK A01 T01270001  RH  042%=      5-min Rain = 0
KCL1 181539Z 24021G33KT 13/00 A2973 RMK A01 T01280001  RH  042%=      5-min Rain = 0
KCL1 181540Z 25016G21KT 13/00 A2973 RMK A01 T01280001  RH  042%=      5-min Rain = 0
KCL1 181541Z 25020KT 13/00 A2973 RMK A01 T01280001  RH  042%=      5-min Rain = 0
KCL1 181542Z 25016G22KT 13/00 A2973 RMK A01 T01280001  RH  042%=      5-min Rain = 0
KCL1 181543Z 24017G24KT 13/00 A2973 RMK A01 T01280001  RH  042%=      5-min Rain = 0
KCL1 181544Z 25016G25KT 13/00 A2973 RMK A01 T01280001  RH  042%=      5-min Rain = 0
KCL1 181545Z 24017G22KT 13/00 A2973 RMK A01 T01290002  RH  042%=      5-min Rain = 0
KCL1 181546Z 25015G20KT 13/00 A2973 RMK A01 T01280002  RH  042%=      5-min Rain = 0
KCL1 181547Z 25021G26KT 13/00 A2972 RMK A01 T01290002  RH  042%=      5-min Rain = 0
KCL1 181548Z 25023G28KT 13/00 A2972 RMK A01 T01290002  RH  042%=      5-min Rain = 0
KCL1 181549Z 24021G29KT 13/00 A2972 RMK A01 T01290003  RH  042%=      5-min Rain = 0
KCL1 181550Z 24017G22KT 13/00 A2972 RMK A01 T01300003  RH  042%=      5-min Rain = 0
KCL1 181551Z 24017G23KT 13/00 A2973 RMK A01 T01300003  RH  042%=      5-min Rain = 0
KCL1 181552Z 24021G27KT 13/00 A2972 RMK A01 T01300002  RH  042%=      5-min Rain = 0
KCL1 181553Z 25019G26KT 13/00 A2972 RMK A01 T01300003  RH  042%=      5-min Rain = 0
KCL1 181554Z 24021G27KT 13/00 A2972 RMK A01 T01300002  RH  041%=      5-min Rain = 0
KCL1 181555Z 24023G28KT 13/00 A2972 RMK A01 T01300002  RH  041%=      5-min Rain = 0
KCL1 181556Z 25021G27KT 13/00 A2972 RMK A01 T01300002  RH  042%=      5-min Rain = 0
KCL1 181557Z 24022G30KT 13/00 A2972 RMK A01 T01300002  RH  041%=      5-min Rain = 0
KCL1 181558Z 25017G22KT 13/00 A2972 RMK A01 T01300002  RH  041%=      5-min Rain = 0
KCL1 181559Z 26018G24KT 13/00 A2973 RMK A01 T01300002  RH  042%=      5-min Rain = 0
KCL1 181600Z 24018KT 13/00 A2973 RMK A01 T01310003  RH  041%=      5-min Rain = 0
KCL1 181601Z 24019G24KT 13/00 A2972 RMK A01 T01300003  RH  041%=      5-min Rain = 0
KCL1 181602Z 24019G26KT 13/00 A2972 RMK A01 T01310003  RH  042%=      5-min Rain = 0
KCL1 181603Z 25018G24KT 13/00 A2972 RMK A01 T01310003  RH  042%=      5-min Rain = 0
KCL1 181604Z 24017G27KT 13/00 A2972 RMK A01 T01310004  RH  042%=      5-min Rain = 0
KCL1 181605Z 25020G32KT 13/00 A2972 RMK A01 T01320004  RH  042%=      5-min Rain = 0
KCL1 181606Z 24018G24KT 13/00 A2972 RMK A01 T01310004  RH  042%=      5-min Rain = 0
KCL1 181607Z 25020G29KT 13/00 A2972 RMK A01 T01310004  RH  042%=      5-min Rain = 0
KCL1 181608Z 26023G29KT 13/00 A2972 RMK A01 T01310004  RH  042%=      5-min Rain = 0
KCL1 181609Z 25020G26KT 13/00 A2972 RMK A01 T01310004  RH  042%=      5-min Rain = 0
KCL1 181610Z 24017KT 13/01 A2972 RMK A01 T01310005  RH  042%=      5-min Rain = 0
KCL1 181611Z 25019KT 13/01 A2972 RMK A01 T01310005  RH  042%=      5-min Rain = 0
KCL1 181612Z 23021KT 13/01 A2971 RMK A01 T01310005  RH  042%=      5-min Rain = 0
KCL1 181613Z 24021G26KT 13/01 A2971 RMK A01 T01310005  RH  042%=      5-min Rain = 0
KCL1 181614Z 24020G26KT 13/01 A2971 RMK A01 T01310005  RH  042%=      5-min Rain = 0
KCL1 181615Z 23018G28KT 13/01 A2971 RMK A01 T01320005  RH  042%=      5-min Rain = 0
KCL1 181616Z 24022G32KT 13/01 A2971 RMK A01 T01320005  RH  042%=      5-min Rain = 0
KCL1 181617Z 25024KT 13/01 A2971 RMK A01 T01330005  RH  042%=      5-min Rain = 0
KCL1 181618Z 24022G31KT 13/01 A2971 RMK A01 T01330006  RH  042%=      5-min Rain = 0
KCL1 181619Z 25021G29KT 13/01 A2971 RMK A01 T01330006  RH  042%=      5-min Rain = 0
KCL1 181620Z 23019G24KT 13/01 A297 RMK A01 T01330006  RH  042%=      5-min Rain = 0
KCL1 181621Z 25022G27KT 13/01 A297 RMK A01 T01340007  RH  042%=      5-min Rain = 0
KCL1 181622Z 25021G29KT 14/01 A297 RMK A01 T01360008  RH  042%=      5-min Rain = 0
KCL1 181623Z 25020G30KT 14/01 A2971 RMK A01 T01360008  RH  041%=      5-min Rain = 0
KCL1 181624Z 25023G33KT 14/01 A297 RMK A01 T01370008  RH  041%=      5-min Rain = 0
KCL1 181625Z 25022G28KT 14/01 A297 RMK A01 T01380009  RH  041%=      5-min Rain = 0
KCL1 181626Z 25016KT 14/01 A297 RMK A01 T01380009  RH  041%=      5-min Rain = 0
KCL1 181627Z 24018G23KT 14/01 A297 RMK A01 T01380010  RH  041%=      5-min Rain = 0
KCL1 181628Z 26023G30KT 14/01 A297 RMK A01 T01390010  RH  041%=      5-min Rain = 0
KCL1 181629Z 25022G28KT 14/01 A297 RMK A01 T01390010  RH  041%=      5-min Rain = 0
KCL1 181630Z 24013KT 14/01 A297 RMK A01 T01390010  RH  042%=      5-min Rain = 0
KCL1 181631Z 24017G23KT 14/01 A297 RMK A01 T01390011  RH  042%=      5-min Rain = 0
KCL1 181632Z 25017G22KT 14/01 A297 RMK A01 T01400011  RH  041%=      5-min Rain = 0
KCL1 181633Z 25013G18KT 14/01 A297 RMK A01 T01410012  RH  041%=      5-min Rain = 0
KCL1 181634Z 26020G35KT 14/01 A297 RMK A01 T01420012  RH  041%=      5-min Rain = 0
KCL1 181635Z 25020G33KT 14/01 A297 RMK A01 T01430012  RH  041%=      5-min Rain = 0
KCL1 181636Z 25023G31KT 14/01 A297 RMK A01 T01430012  RH  041%=      5-min Rain = 0
KCL1 181637Z 26015G22KT 14/01 A297 RMK A01 T01440013  RH  041%=      5-min Rain = 0
KCL1 181638Z 25018G24KT 15/01 A297 RMK A01 T01450013  RH  041%=      5-min Rain = 0
KCL1 181639Z 26015G20KT 15/01 A297 RMK A01 T01460014  RH  041%=      5-min Rain = 0
KCL1 181640Z 25015G24KT 15/01 A297 RMK A01 T01460014  RH  041%=      5-min Rain = 0
KCL1 181641Z 25019G28KT 15/01 A297 RMK A01 T01460014  RH  041%=      5-min Rain = 0
KCL1 181642Z 23018G31KT 15/01 A2969 RMK A01 T01450013  RH  041%=      5-min Rain = 0
KCL1 181643Z 25018G24KT 14/01 A297 RMK A01 T01430013  RH  041%=      5-min Rain = 0
KCL1 181644Z 26021G29KT 14/01 A297 RMK A01 T01430013  RH  041%=      5-min Rain = 0
KCL1 181645Z 26019KT 14/01 A2969 RMK A01 T01420012  RH  041%=      5-min Rain = 0
KCL1 181646Z 25025G34KT 14/01 A2969 RMK A01 T01420013  RH  041%=      5-min Rain = 0
KCL1 181647Z 27018G25KT 14/01 A2969 RMK A01 T01420013  RH  041%=      5-min Rain = 0
KCL1 181648Z 25017KT 14/01 A297 RMK A01 T01410013  RH  042%=      5-min Rain = 0
KCL1 181649Z 25020G26KT 14/01 A2969 RMK A01 T01420013  RH  042%=      5-min Rain = 0
KCL1 181650Z 24020G29KT 14/01 A2969 RMK A01 T01420013  RH  041%=      5-min Rain = 0
KCL1 181651Z 26021G31KT 14/01 A2969 RMK A01 T01420013  RH  041%=      5-min Rain = 0
KCL1 181652Z 25018G29KT 14/01 A2969 RMK A01 T01420013  RH  041%=      5-min Rain = 0
KCL1 181653Z 25018G26KT 14/01 A2969 RMK A01 T01420013  RH  042%=      5-min Rain = 0
KCL1 181654Z 25021G29KT 14/01 A297 RMK A01 T01420013  RH  041%=      5-min Rain = 0
KCL1 181655Z 25017KT 14/01 A2969 RMK A01 T01420013  RH  041%=      5-min Rain = 0
KCL1 181656Z 26020G29KT 14/01 A2969 RMK A01 T01430014  RH  042%=      5-min Rain = 0
KCL1 181657Z 26018G25KT 14/01 A297 RMK A01 T01430014  RH  041%=      5-min Rain = 0
KCL1 181658Z 25021G29KT 14/01 A2969 RMK A01 T01430014  RH  041%=      5-min Rain = 0
KCL1 181659Z 26020G26KT 14/02 A2969 RMK A01 T01440015  RH  041%=      5-min Rain = 0
KCL1 181700Z 26020G29KT 14/01 A2969 RMK A01 T01440014  RH  041%=      5-min Rain = 0
KCL1 181701Z 26021KT 15/02 A2969 RMK A01 T01460015  RH  041%=      5-min Rain = 0
KCL1 181702Z 24016G22KT 15/02 A297 RMK A01 T01490016  RH  041%=      5-min Rain = 0
KCL1 181703Z 25021G31KT 15/02 A2969 RMK A01 T01510016  RH  040%=      5-min Rain = 0
KCL1 181704Z 24024G37KT 15/02 A2969 RMK A01 T01510015  RH  040%=      5-min Rain = 0
KCL1 181705Z 24015G20KT 15/02 A2969 RMK A01 T01500015  RH  040%=      5-min Rain = 0
KCL1 181706Z 25013G23KT 15/02 A2969 RMK A01 T01530017  RH  040%=      5-min Rain = 0
KCL1 181707Z 25014G21KT 16/02 A2969 RMK A01 T01560018  RH  039%=      5-min Rain = 0
KCL1 181708Z 25021G26KT 16/02 A2969 RMK A01 T01570017  RH  039%=      5-min Rain = 0
KCL1 181709Z 26020KT 16/02 A2969 RMK A01 T01570017  RH  039%=      5-min Rain = 0
KCL1 181710Z 26022G34KT 16/02 A2968 RMK A01 T01570016  RH  038%=      5-min Rain = 0
KCL1 181711Z 26021G29KT 16/02 A2968 RMK A01 T01570016  RH  038%=      5-min Rain = 0
KCL1 181712Z 26021G28KT 16/02 A2968 RMK A01 T01570016  RH  039%=      5-min Rain = 0
KCL1 181713Z 26019G27KT 16/02 A2968 RMK A01 T01570017  RH  039%=      5-min Rain = 0
KCL1 181714Z 26017G24KT 16/02 A2969 RMK A01 T01570017  RH  039%=      5-min Rain = 0
KCL1 181715Z 26023G29KT 16/02 A2968 RMK A01 T01570016  RH  039%=      5-min Rain = 0
KCL1 181716Z 25016G25KT 16/02 A2968 RMK A01 T01560017  RH  039%=      5-min Rain = 0
KCL1 181717Z 25014G20KT 16/02 A2968 RMK A01 T01560017  RH  039%=      5-min Rain = 0
KCL1 181718Z 25016G26KT 16/02 A2968 RMK A01 T01570017  RH  039%=      5-min Rain = 0
KCL1 181719Z 25022G30KT 16/02 A2968 RMK A01 T01580018  RH  039%=      5-min Rain = 0
KCL1 181720Z 25016G23KT 16/02 A2968 RMK A01 T01580018  RH  039%=      5-min Rain = 0
KCL1 181721Z 25018KT 16/02 A2968 RMK A01 T01570017  RH  039%=      5-min Rain = 0
KCL1 181722Z 25016G22KT 16/02 A2968 RMK A01 T01580018  RH  039%=      5-min Rain = 0
KCL1 181723Z 24017G23KT 16/02 A2968 RMK A01 T01590018  RH  039%=      5-min Rain = 0
KCL1 181724Z 25018G25KT 16/02 A2968 RMK A01 T01590019  RH  039%=      5-min Rain = 0
KCL1 181725Z 25022G30KT 16/02 A2967 RMK A01 T01600019  RH  038%=      5-min Rain = 0
KCL1 181726Z 25021G27KT 16/02 A2967 RMK A01 T01600018  RH  038%=      5-min Rain = 0
KCL1 181727Z 24023G32KT 16/02 A2967 RMK A01 T01600018  RH  038%=      5-min Rain = 0
KCL1 181728Z 24027KT 16/02 A2967 RMK A01 T01600018  RH  038%=      5-min Rain = 0
KCL1 181729Z 24024G34KT 16/02 A2967 RMK A01 T01590018  RH  038%=      5-min Rain = 0
KCL1 181730Z 24025G38KT 16/02 A2967 RMK A01 T01590018  RH  038%=      5-min Rain = 0
KCL1 181731Z 24026G34KT 16/02 A2967 RMK A01 T01590018  RH  039%=      5-min Rain = 0
KCL1 181732Z 25025G33KT 16/02 A2967 RMK A01 T01590018  RH  039%=      5-min Rain = 0
KCL1 181733Z 25022G32KT 16/02 A2966 RMK A01 T01590018  RH  039%=      5-min Rain = 0
KCL1 181734Z 25025G30KT 16/02 A2967 RMK A01 T01590018  RH  039%=      5-min Rain = 0
KCL1 181735Z 26019G27KT 16/02 A2966 RMK A01 T01590019  RH  039%=      5-min Rain = 0
KCL1 181736Z 25020G27KT 16/02 A2966 RMK A01 T01600020  RH  039%=      5-min Rain = 0
KCL1 181737Z 24023G35KT 16/02 A2966 RMK A01 T01600021  RH  039%=      5-min Rain = 0
KCL1 181738Z 24025G34KT 16/02 A2966 RMK A01 T01600020  RH  039%=      5-min Rain = 0
KCL1 181739Z 24020G26KT 16/02 A2966 RMK A01 T01600020  RH  039%=      5-min Rain = 0
KCL1 181740Z 26022G28KT 16/02 A2966 RMK A01 T01600020  RH  039%=      5-min Rain = 0
KCL1 181741Z 25017G25KT 16/02 A2966 RMK A01 T01600021  RH  039%=      5-min Rain = 0
KCL1 181742Z 26019G25KT 16/02 A2966 RMK A01 T01620021  RH  039%=      5-min Rain = 0
KCL1 181743Z 26019G25KT 16/02 A2966 RMK A01 T01620021  RH  039%=      5-min Rain = 0
KCL1 181744Z 25025G33KT 16/02 A2966 RMK A01 T01630020  RH  038%=      5-min Rain = 0
KCL1 181745Z 26025G35KT 16/02 A2966 RMK A01 T01620019  RH  038%=      5-min Rain = 0
KCL1 181746Z 26023G31KT 16/02 A2966 RMK A01 T01620020  RH  039%=      5-min Rain = 0
KCL1 181747Z 26022G28KT 16/02 A2966 RMK A01 T01620021  RH  038%=      5-min Rain = 0
KCL1 181748Z 26021G28KT 16/02 A2966 RMK A01 T01620020  RH  038%=      5-min Rain = 0
KCL1 181749Z 26020G28KT 16/02 A2966 RMK A01 T01630021  RH  038%=      5-min Rain = 0
KCL1 181750Z 25016KT 17/02 A2966 RMK A01 T01650022  RH  038%=      5-min Rain = 0
KCL1 181751Z 27015G22KT 17/02 A2966 RMK A01 T01660022  RH  038%=      5-min Rain = 0
KCL1 181752Z 24022G27KT 17/02 A2965 RMK A01 T01670022  RH  038%=      5-min Rain = 0
KCL1 181753Z 24024G30KT 17/02 A2965 RMK A01 T01670021  RH  037%=      5-min Rain = 0
KCL1 181754Z 24021G28KT 17/02 A2965 RMK A01 T01670021  RH  037%=      5-min Rain = 0
KCL1 181755Z 25018G26KT 17/02 A2965 RMK A01 T01670021  RH  037%=      5-min Rain = 0
KCL1 181756Z 24022G34KT 17/02 A2965 RMK A01 T01680021  RH  037%=      5-min Rain = 0
KCL1 181757Z 24022G28KT 17/02 A2965 RMK A01 T01680020  RH  037%=      5-min Rain = 0
KCL1 181758Z 24022G30KT 17/02 A2965 RMK A01 T01680020  RH  037%=      5-min Rain = 0
KCL1 181759Z 23021G36KT 17/02 A2965 RMK A01 T01680020  RH  037%=      5-min Rain = 0
KCL1 181800Z 24024G39KT 17/02 A2965 RMK A01 T01690020  RH  037%=      5-min Rain = 0
KCL1 181801Z 25022KT 17/02 A2965 RMK A01 T01690020  RH  037%=      5-min Rain = 0
KCL1 181802Z 26019G26KT 17/02 A2965 RMK A01 T01680020  RH  037%=      5-min Rain = 0
KCL1 181803Z 26021G26KT 17/02 A2965 RMK A01 T01690019  RH  037%=      5-min Rain = 0
KCL1 181804Z 24019G25KT 17/02 A2965 RMK A01 T01690019  RH  036%=      5-min Rain = 0
KCL1 181805Z 26026G32KT 17/02 A2965 RMK A01 T01700019  RH  036%=      5-min Rain = 0
KCL1 181806Z 26025G35KT 17/02 A2965 RMK A01 T01700019  RH  036%=      5-min Rain = 0
KCL1 181807Z 26024G31KT 17/02 A2965 RMK A01 T01700019  RH  036%=      5-min Rain = 0
KCL1 181808Z 26023G34KT 17/02 A2965 RMK A01 T01700019  RH  036%=      5-min Rain = 0
KCL1 181809Z 26020G29KT 17/02 A2964 RMK A01 T01700020  RH  036%=      5-min Rain = 0
KCL1 181810Z 25019G26KT 17/02 A2965 RMK A01 T01710021  RH  036%=      5-min Rain = 0
KCL1 181811Z 25018G25KT 17/02 A2964 RMK A01 T01720022  RH  036%=      5-min Rain = 0
KCL1 181812Z 26017G24KT 17/02 A2964 RMK A01 T01730021  RH  036%=      5-min Rain = 0
KCL1 181813Z 26019KT 17/02 A2964 RMK A01 T01740022  RH  036%=      5-min Rain = 0
KCL1 181814Z 25023G30KT 17/02 A2964 RMK A01 T01740022  RH  036%=      5-min Rain = 0
KCL1 181815Z 25020G26KT 17/02 A2964 RMK A01 T01740021  RH  036%=      5-min Rain = 0
KCL1 181816Z 24016G23KT 17/02 A2964 RMK A01 T01740020  RH  036%=      5-min Rain = 0
KCL1 181817Z 24017G27KT 17/02 A2964 RMK A01 T01740020  RH  035%=      5-min Rain = 0
KCL1 181818Z 26021G31KT 17/02 A2964 RMK A01 T01740019  RH  035%=      5-min Rain = 0
KCL1 181819Z 27027G32KT 17/02 A2963 RMK A01 T01730017  RH  035%=      5-min Rain = 0
KCL1 181820Z 25022G33KT 17/02 A2963 RMK A01 T01730016  RH  035%=      5-min Rain = 0
KCL1 181821Z 25017G22KT 17/02 A2963 RMK A01 T01720016  RH  035%=      5-min Rain = 0
KCL1 181822Z 26014G25KT 17/02 A2963 RMK A01 T01730017  RH  035%=      5-min Rain = 0
KCL1 181823Z 26027G35KT 17/02 A2963 RMK A01 T01740017  RH  035%=      5-min Rain = 0
KCL1 181824Z 26024G32KT 17/01 A2963 RMK A01 T01740014  RH  034%=      5-min Rain = 0
KCL1 181825Z 26023G31KT 18/01 A2963 RMK A01 T01750014  RH  034%=      5-min Rain = 0
KCL1 181826Z 26021G29KT 18/01 A2963 RMK A01 T01750011  RH  033%=      5-min Rain = 0
KCL1 181827Z 27029G35KT 17/01 A2962 RMK A01 T01740011  RH  033%=      5-min Rain = 0
KCL1 181828Z 27027G32KT 17/01 A2962 RMK A01 T01740012  RH  033%=      5-min Rain = 0
KCL1 181829Z 26023G30KT 17/01 A2962 RMK A01 T01740012  RH  034%=      5-min Rain = 0
KCL1 181830Z 24020G31KT 17/01 A2963 RMK A01 T01740013  RH  034%=      5-min Rain = 0
KCL1 181831Z 24019G28KT 18/01 A2962 RMK A01 T01760014  RH  034%=      5-min Rain = 0
KCL1 181832Z 24023G30KT 18/01 A2963 RMK A01 T01760014  RH  033%=      5-min Rain = 0
KCL1 181833Z 24018G24KT 18/01 A2962 RMK A01 T01760014  RH  033%=      5-min Rain = 0
KCL1 181834Z 25018KT 18/01 A2963 RMK A01 T01770014  RH  033%=      5-min Rain = 0
KCL1 181835Z 26019KT 18/01 A2963 RMK A01 T01780011  RH  033%=      5-min Rain = 0
KCL1 181836Z 24019G29KT 18/01 A2962 RMK A01 T01790008  RH  032%=      5-min Rain = 0
KCL1 181837Z 23024G32KT 18/01 A2962 RMK A01 T01790010  RH  032%=      5-min Rain = 0
KCL1 181838Z 25023G31KT 18/01 A2962 RMK A01 T01780009  RH  032%=      5-min Rain = 0
KCL1 181839Z 24026G34KT 18/01 A2962 RMK A01 T01780010  RH  032%=      5-min Rain = 0
KCL1 181840Z 25025G35KT 18/01 A2962 RMK A01 T01770009  RH  032%=      5-min Rain = 0
KCL1 181841Z 24024G29KT 18/01 A2962 RMK A01 T01760008  RH  032%=      5-min Rain = 0
KCL1 181842Z 25022G33KT 18/01 A2962 RMK A01 T01750007  RH  032%=      5-min Rain = 0
KCL1 181843Z 25017G22KT 18/01 A2962 RMK A01 T01750008  RH  032%=      5-min Rain = 0
KCL1 181844Z 24020G27KT 18/01 A2961 RMK A01 T01770008  RH  032%=      5-min Rain = 0
KCL1 181845Z 24019G25KT 18/01 A2961 RMK A01 T01770008  RH  032%=      5-min Rain = 0
KCL1 181846Z 24017G22KT 18/01 A2961 RMK A01 T01780008  RH  032%=      5-min Rain = 0
KCL1 181847Z 26022G30KT 18/01 A2961 RMK A01 T01780008  RH  032%=      5-min Rain = 0
KCL1 181848Z 26015KT 18/01 A2961 RMK A01 T01790008  RH  032%=      5-min Rain = 0
KCL1 181849Z 26017KT 18/01 A2961 RMK A01 T01810009  RH  031%=      5-min Rain = 0
KCL1 181850Z 25015KT 18/01 A2961 RMK A01 T01810007  RH  031%=      5-min Rain = 0
KCL1 181851Z 27015G21KT 18/01 A2961 RMK A01 T01810005  RH  031%=      5-min Rain = 0
KCL1 181852Z 27019KT 18/00 A2961 RMK A01 T01820003  RH  030%=      5-min Rain = 0
KCL1 181853Z 26016G22KT 18/00 A2961 RMK A01 T01830001  RH  029%=      5-min Rain = 0
KCL1 181854Z 25022G32KT 18/00 A2961 RMK A01 T01840001  RH  029%=      5-min Rain = 0
KCL1 181855Z 25021G29KT 18/M00 A296 RMK A01 T01821003  RH  029%=      5-min Rain = 0
KCL1 181856Z 25022G29KT 18/M00 A2961 RMK A01 T01811004  RH  029%=      5-min Rain = 0
KCL1 181857Z 26018G30KT 18/M01 A2961 RMK A01 T01811005  RH  028%=      5-min Rain = 0
KCL1 181858Z 25023G29KT 18/M01 A296 RMK A01 T01811006  RH  028%=      5-min Rain = 0
KCL1 181859Z 26019G27KT 18/M01 A296 RMK A01 T01811006  RH  028%=      5-min Rain = 0
KCL1 181900Z 26020KT 18/M01 A296 RMK A01 T01811007  RH  028%=      5-min Rain = 0
KCL1 181901Z 27025G32KT 18/M01 A296 RMK A01 T01801007  RH  028%=      5-min Rain = 0
KCL1 181902Z 26017G24KT 18/M01 A296 RMK A01 T01811007  RH  028%=      5-min Rain = 0
KCL1 181903Z 25021G31KT 18/M01 A296 RMK A01 T01811007  RH  028%=      5-min Rain = 0
KCL1 181904Z 26026G35KT 18/M01 A296 RMK A01 T01821007  RH  028%=      5-min Rain = 0
KCL1 181905Z 26025G34KT 18/M01 A296 RMK A01 T01811008  RH  028%=      5-min Rain = 0
KCL1 181906Z 26029G35KT 18/M01 A2959 RMK A01 T01801008  RH  028%=      5-min Rain = 0
KCL1 181907Z 26019G27KT 18/M01 A296 RMK A01 T01801007  RH  028%=      5-min Rain = 0
KCL1 181908Z 25022G30KT 18/M01 A296 RMK A01 T01811005  RH  028%=      5-min Rain = 0
KCL1 181909Z 26022G28KT 18/M01 A296 RMK A01 T01821005  RH  028%=      5-min Rain = 0
KCL1 181910Z 26021G33KT 18/M01 A2959 RMK A01 T01831005  RH  028%=      5-min Rain = 0
KCL1 181911Z 26027G36KT 18/M01 A2959 RMK A01 T01841006  RH  028%=      5-min Rain = 0
KCL1 181912Z 27026G31KT 18/M01 A2959 RMK A01 T01831007  RH  028%=      5-min Rain = 0
KCL1 181913Z 26021G27KT 18/M01 A2959 RMK A01 T01821008  RH  028%=      5-min Rain = 0
KCL1 181914Z 27025G34KT 18/M01 A2959 RMK A01 T01831007  RH  028%=      5-min Rain = 0
KCL1 181915Z 26028G35KT 18/M01 A2959 RMK A01 T01831008  RH  027%=      5-min Rain = 0
KCL1 181916Z 27024G32KT 18/M01 A2959 RMK A01 T01821008  RH  028%=      5-min Rain = 0
KCL1 181917Z 27022G27KT 18/M01 A2959 RMK A01 T01811009  RH  028%=      5-min Rain = 0
KCL1 181918Z 25015G22KT 18/M01 A2959 RMK A01 T01801009  RH  028%=      5-min Rain = 0
KCL1 181919Z 24023G31KT 18/M01 A2959 RMK A01 T01811008  RH  028%=      5-min Rain = 0
KCL1 181920Z 26018G30KT 18/M01 A2959 RMK A01 T01811009  RH  028%=      5-min Rain = 0
KCL1 181921Z 26019G25KT 18/M01 A2959 RMK A01 T01811009  RH  028%=      5-min Rain = 0
KCL1 181922Z 26018G26KT 18/M01 A2959 RMK A01 T01811010  RH  028%=      5-min Rain = 0
KCL1 181923Z 26024G33KT 18/M01 A2959 RMK A01 T01801011  RH  027%=      5-min Rain = 0
KCL1 181924Z 26028G34KT 18/M01 A2959 RMK A01 T01781012  RH  027%=      5-min Rain = 0
KCL1 181925Z 26026G34KT 18/M01 A2959 RMK A01 T01751013  RH  028%=      5-min Rain = 0
KCL1 181926Z 27026KT 18/M01 A2959 RMK A01 T01751012  RH  028%=      5-min Rain = 0
KCL1 181927Z 27020KT 18/M01 A2959 RMK A01 T01751011  RH  028%=      5-min Rain = 0
KCL1 181928Z 27023G28KT 18/M01 A2959 RMK A01 T01771009  RH  028%=      5-min Rain = 0
KCL1 181929Z 27023G28KT 18/M01 A2959 RMK A01 T01771009  RH  028%=      5-min Rain = 0
KCL1 181930Z 26017G24KT 18/M01 A2959 RMK A01 T01771008  RH  028%=      5-min Rain = 0
KCL1 181931Z 27024G31KT 18/M01 A2959 RMK A01 T01771009  RH  028%=      5-min Rain = 0
KCL1 181932Z 26015G26KT 18/M01 A2959 RMK A01 T01751011  RH  028%=      5-min Rain = 0
KCL1 181933Z 27018G25KT 17/M01 A2959 RMK A01 T01741011  RH  029%=      5-min Rain = 0
KCL1 181934Z 27025G30KT 17/M01 A2959 RMK A01 T01741012  RH  028%=      5-min Rain = 0
KCL1 181935Z 27024G30KT 17/M01 A2959 RMK A01 T01731013  RH  028%=      5-min Rain = 0
KCL1 181936Z 26023KT 17/M01 A2959 RMK A01 T01731013  RH  028%=      5-min Rain = 0
KCL1 181937Z 27018KT 17/M01 A2959 RMK A01 T01721012  RH  028%=      5-min Rain = 0
KCL1 181938Z 26015KT 17/M01 A2959 RMK A01 T01721012  RH  029%=      5-min Rain = 0
KCL1 181939Z 27018KT 17/M01 A2959 RMK A01 T01731010  RH  029%=      5-min Rain = 0
KCL1 181940Z 27016KT 17/M01 A2959 RMK A01 T01741009  RH  029%=      5-min Rain = 0
KCL1 181941Z 26014KT 18/M01 A2959 RMK A01 T01751009  RH  029%=      5-min Rain = 0
KCL1 181942Z 26011G17KT 18/M01 A2959 RMK A01 T01781007  RH  028%=      5-min Rain = 0
KCL1 181943Z 27016KT 18/M01 A2959 RMK A01 T01811009  RH  028%=      5-min Rain = 0
KCL1 181944Z 27018KT 18/M01 A2959 RMK A01 T01811012  RH  027%=      5-min Rain = 0
KCL1 181945Z 27016G24KT 18/M01 A2959 RMK A01 T01801012  RH  027%=      5-min Rain = 0
KCL1 181946Z 25020KT 18/M01 A2959 RMK A01 T01801014  RH  027%=      5-min Rain = 0
KCL1 181947Z 26013KT 18/M02 A2959 RMK A01 T01791015  RH  027%=      5-min Rain = 0
KCL1 181948Z 26020G25KT 18/M02 A2959 RMK A01 T01791016  RH  027%=      5-min Rain = 0
KCL1 181949Z 26021G28KT 18/M02 A2958 RMK A01 T01791019  RH  026%=      5-min Rain = 0
KCL1 181950Z 26022G27KT 18/M02 A2958 RMK A01 T01781021  RH  026%=      5-min Rain = 0
KCL1 181951Z 26021KT 18/M02 A2958 RMK A01 T01771022  RH  026%=      5-min Rain = 0
KCL1 181952Z 25020KT 18/M02 A2958 RMK A01 T01771024  RH  025%=      5-min Rain = 0
KCL1 181953Z 25014G23KT 18/M03 A2958 RMK A01 T01761025  RH  025%=      5-min Rain = 0
KCL1 181954Z 26016G23KT 18/M03 A2958 RMK A01 T01761025  RH  025%=      5-min Rain = 0
KCL1 181955Z 27020KT 18/M03 A2958 RMK A01 T01771027  RH  025%=      5-min Rain = 0
KCL1 181956Z 27019G24KT 18/M03 A2958 RMK A01 T01771031  RH  024%=      5-min Rain = 0
KCL1 181957Z 27022KT 18/M03 A2958 RMK A01 T01771031  RH  024%=      5-min Rain = 0
KCL1 181958Z 27021G27KT 18/M03 A2958 RMK A01 T01771031  RH  024%=      5-min Rain = 0
KCL1 181959Z 27021G27KT 18/M03 A2958 RMK A01 T01761031  RH  024%=      5-min Rain = 0
KCL1 182000Z 27027KT 18/M03 A2958 RMK A01 T01751032  RH  024%=      5-min Rain = 0
KCL1 182001Z 27024KT 17/M03 A2958 RMK A01 T01741031  RH  024%=      5-min Rain = 0
KCL1 182002Z 26023G30KT 17/M03 A2958 RMK A01 T01731031  RH  025%=      5-min Rain = 0
KCL1 182003Z 27027G32KT 17/M03 A2958 RMK A01 T01731032  RH  025%=      5-min Rain = 0
KCL1 182004Z 27023G28KT 17/M03 A2958 RMK A01 T01711032  RH  025%=      5-min Rain = 0
KCL1 182005Z 27025G31KT 17/M03 A2958 RMK A01 T01711032  RH  025%=      5-min Rain = 0
KCL1 182006Z 26021G28KT 17/M03 A2958 RMK A01 T01701033  RH  025%=      5-min Rain = 0
KCL1 182007Z 26016G21KT 17/M03 A2959 RMK A01 T01701033  RH  025%=      5-min Rain = 0
KCL1 182008Z 26020KT 17/M03 A2958 RMK A01 T01711033  RH  025%=      5-min Rain = 0
KCL1 182009Z 27021G28KT 17/M03 A2958 RMK A01 T01711034  RH  024%=      5-min Rain = 0
KCL1 182010Z 27021G27KT 17/M04 A2958 RMK A01 T01721035  RH  024%=      5-min Rain = 0
KCL1 182011Z 26020G25KT 17/M04 A2958 RMK A01 T01731035  RH  024%=      5-min Rain = 0
KCL1 182012Z 26023G32KT 17/M04 A2958 RMK A01 T01741035  RH  024%=      5-min Rain = 0
KCL1 182013Z 27023G29KT 17/M04 A2958 RMK A01 T01741035  RH  024%=      5-min Rain = 0
KCL1 182014Z 26024KT 17/M04 A2958 RMK A01 T01741036  RH  024%=      5-min Rain = 0
KCL1 182015Z 26024KT 17/M04 A2958 RMK A01 T01741037  RH  023%=      5-min Rain = 0
KCL1 182016Z 26024G33KT 17/M04 A2958 RMK A01 T01731040  RH  023%=      5-min Rain = 0
KCL1 182017Z 27021KT 17/M04 A2958 RMK A01 T01731041  RH  023%=      5-min Rain = 0
KCL1 182018Z 26022G28KT 18/M04 A2958 RMK A01 T01761042  RH  022%=      5-min Rain = 0
KCL1 182019Z 27023G31KT 18/M04 A2958 RMK A01 T01771043  RH  022%=      5-min Rain = 0
KCL1 182020Z 28026G31KT 18/M04 A2958 RMK A01 T01771044  RH  022%=      5-min Rain = 0
KCL1 182021Z 27023KT 18/M05 A2958 RMK A01 T01781045  RH  022%=      5-min Rain = 0
KCL1 182022Z 27021G27KT 18/M04 A2958 RMK A01 T01801044  RH  021%=      5-min Rain = 0
KCL1 182023Z 27023G28KT 18/M04 A2958 RMK A01 T01821043  RH  021%=      5-min Rain = 0
KCL1 182024Z 27020G26KT 18/M04 A2958 RMK A01 T01821043  RH  021%=      5-min Rain = 0
KCL1 182025Z 27024KT 18/M04 A2958 RMK A01 T01821042  RH  021%=      5-min Rain = 0
KCL1 182026Z 27022G28KT 18/M04 A2958 RMK A01 T01821042  RH  021%=      5-min Rain = 0
KCL1 182027Z 26021G27KT 18/M04 A2958 RMK A01 T01831042  RH  021%=      5-min Rain = 0
KCL1 182028Z 27024KT 18/M04 A2958 RMK A01 T01841043  RH  021%=      5-min Rain = 0
KCL1 182029Z 27026KT 18/M05 A2958 RMK A01 T01841048  RH  020%=      5-min Rain = 0
KCL1 182030Z 27026KT 18/M05 A2959 RMK A01 T01821052  RH  020%=      5-min Rain = 0
KCL1 182031Z 27024G32KT 18/M05 A2959 RMK A01 T01791054  RH  020%=      5-min Rain = 0
KCL1 182032Z 27023G29KT 18/M05 A2958 RMK A01 T01771053  RH  020%=      5-min Rain = 0
KCL1 182033Z 27025G34KT 18/M05 A2958 RMK A01 T01761051  RH  021%=      5-min Rain = 0
KCL1 182034Z 26031KT 18/M05 A2958 RMK A01 T01771050  RH  021%=      5-min Rain = 0
KCL1 182035Z 26026G33KT 18/M05 A2958 RMK A01 T01761051  RH  021%=      5-min Rain = 0
KCL1 182036Z 26027KT 18/M05 A2958 RMK A01 T01751052  RH  021%=      5-min Rain = 0
KCL1 182037Z 27027G32KT 17/M05 A2958 RMK A01 T01741052  RH  021%=      5-min Rain = 0
KCL1 182038Z 27026G32KT 17/M05 A2958 RMK A01 T01731052  RH  021%=      5-min Rain = 0
KCL1 182039Z 27027KT 17/M05 A2958 RMK A01 T01731053  RH  021%=      5-min Rain = 0
KCL1 182040Z 27023G28KT 17/M05 A2958 RMK A01 T01731053  RH  021%=      5-min Rain = 0
KCL1 182041Z 27020G27KT 17/M05 A2958 RMK A01 T01731053  RH  021%=      5-min Rain = 0
KCL1 182042Z 27022KT 17/M05 A2958 RMK A01 T01741052  RH  021%=      5-min Rain = 0
KCL1 182043Z 27023G29KT 17/M05 A2958 RMK A01 T01741051  RH  021%=      5-min Rain = 0
KCL1 182044Z 27023G29KT 17/M05 A2958 RMK A01 T01741052  RH  021%=      5-min Rain = 0
KCL1 182045Z 27026G31KT 17/M05 A2958 RMK A01 T01741052  RH  021%=      5-min Rain = 0
KCL1 182046Z 27024G29KT 17/M05 A2958 RMK A01 T01741053  RH  021%=      5-min Rain = 0
KCL1 182047Z 26023G28KT 17/M05 A2958 RMK A01 T01731053  RH  021%=      5-min Rain = 0
KCL1 182048Z 26023KT 17/M05 A2957 RMK A01 T01731053  RH  021%=      5-min Rain = 0
KCL1 182049Z 26023G28KT 17/M05 A2957 RMK A01 T01731053  RH  021%=      5-min Rain = 0
KCL1 182050Z 26025G33KT 17/M05 A2957 RMK A01 T01731054  RH  021%=      5-min Rain = 0
KCL1 182051Z 27026KT 17/M05 A2957 RMK A01 T01731054  RH  021%=      5-min Rain = 0
KCL1 182052Z 27027G32KT 17/M05 A2957 RMK A01 T01731053  RH  021%=      5-min Rain = 0
KCL1 182053Z 27024G32KT 17/M05 A2957 RMK A01 T01731051  RH  021%=      5-min Rain = 0
KCL1 182054Z 27023KT 17/M05 A2957 RMK A01 T01731051  RH  021%=      5-min Rain = 0
KCL1 182055Z 27023KT 17/M05 A2957 RMK A01 T01731051  RH  021%=      5-min Rain = 0
KCL1 182056Z 26019G25KT 17/M05 A2957 RMK A01 T01731051  RH  021%=      5-min Rain = 0
KCL1 182057Z 27019KT 17/M05 A2957 RMK A01 T01741050  RH  021%=      5-min Rain = 0
KCL1 182058Z 27018KT 17/M05 A2957 RMK A01 T01741050  RH  021%=      5-min Rain = 0
KCL1 182059Z 27018G23KT 17/M05 A2957 RMK A01 T01741050  RH  021%=      5-min Rain = 0
KCL1 182100Z 27020G25KT 17/M05 A2957 RMK A01 T01741050  RH  021%=      5-min Rain = 0
KCL1 182101Z 26020KT 18/M05 A2957 RMK A01 T01751049  RH  021%=      5-min Rain = 0
KCL1 182102Z 26019KT 18/M05 A2957 RMK A01 T01751049  RH  021%=      5-min Rain = 0
KCL1 182103Z 27015G21KT 18/M05 A2957 RMK A01 T01751049  RH  021%=      5-min Rain = 0
KCL1 182104Z 26013G21KT 18/M05 A2957 RMK A01 T01751048  RH  021%=      5-min Rain = 0
KCL1 182105Z 27012KT 18/M05 A2957 RMK A01 T01751047  RH  022%=      5-min Rain = 0
KCL1 182106Z 27018KT 18/M05 A2957 RMK A01 T01751047  RH  022%=      5-min Rain = 0
KCL1 182107Z 27016KT 18/M05 A2957 RMK A01 T01751047  RH  022%=      5-min Rain = 0
KCL1 182108Z 26016G21KT 18/M05 A2957 RMK A01 T01751046  RH  022%=      5-min Rain = 0
KCL1 182109Z 26018G23KT 18/M05 A2957 RMK A01 T01751047  RH  022%=      5-min Rain = 0
KCL1 182110Z 26016G25KT 18/M05 A2957 RMK A01 T01751047  RH  022%=      5-min Rain = 0
KCL1 182111Z 26020G27KT 17/M05 A2957 RMK A01 T01741047  RH  022%=      5-min Rain = 0
KCL1 182112Z 26013G19KT 17/M05 A2957 RMK A01 T01731047  RH  022%=      5-min Rain = 0
KCL1 182113Z 26017G22KT 17/M05 A2957 RMK A01 T01721047  RH  022%=      5-min Rain = 0
KCL1 182114Z 25016KT 17/M05 A2957 RMK A01 T01721047  RH  022%=      5-min Rain = 0
KCL1 182115Z 26014G19KT 17/M05 A2957 RMK A01 T01711048  RH  022%=      5-min Rain = 0
KCL1 182116Z 26012KT 17/M05 A2957 RMK A01 T01711047  RH  022%=      5-min Rain = 0
KCL1 182117Z 26011G16KT 17/M05 A2958 RMK A01 T01711046  RH  022%=      5-min Rain = 0
KCL1 182118Z 25016G21KT 17/M05 A2957 RMK A01 T01711046  RH  022%=      5-min Rain = 0
KCL1 182119Z 25017G22KT 17/M05 A2957 RMK A01 T01711047  RH  022%=      5-min Rain = 0
KCL1 182120Z 26016G23KT 17/M05 A2958 RMK A01 T01711047  RH  022%=      5-min Rain = 0
KCL1 182121Z 26016G22KT 17/M05 A2958 RMK A01 T01701048  RH  022%=      5-min Rain = 0
KCL1 182122Z 26015KT 17/M05 A2958 RMK A01 T01701049  RH  022%=      5-min Rain = 0
KCL1 182123Z 26013G19KT 17/M05 A2958 RMK A01 T01701049  RH  022%=      5-min Rain = 0
KCL1 182124Z 26015G21KT 17/M05 A2958 RMK A01 T01701049  RH  022%=      5-min Rain = 0
KCL1 182125Z 25012KT 17/M05 A2958 RMK A01 T01691049  RH  022%=      5-min Rain = 0
KCL1 182126Z 25018G23KT 17/M05 A2958 RMK A01 T01691049  RH  022%=      5-min Rain = 0
KCL1 182127Z 25017G23KT 17/M05 A2958 RMK A01 T01691049  RH  022%=      5-min Rain = 0
KCL1 182128Z 26013KT 17/M05 A2958 RMK A01 T01691049  RH  022%=      5-min Rain = 0
KCL1 182129Z 25012KT 17/M05 A2958 RMK A01 T01691049  RH  022%=      5-min Rain = 0
KCL1 182130Z 26017G25KT 17/M05 A2958 RMK A01 T01691049  RH  022%=      5-min Rain = 0
KCL1 182131Z 25017KT 17/M05 A2958 RMK A01 T01691050  RH  022%=      5-min Rain = 0
KCL1 182132Z 26017G22KT 17/M05 A2958 RMK A01 T01691050  RH  022%=      5-min Rain = 0
KCL1 182133Z 27020G25KT 17/M05 A2958 RMK A01 T01691049  RH  022%=      5-min Rain = 0
KCL1 182134Z 26015G21KT 17/M05 A2958 RMK A01 T01681050  RH  022%=      5-min Rain = 0
KCL1 182135Z 24013G18KT 17/M05 A2959 RMK A01 T01691049  RH  022%=      5-min Rain = 0
KCL1 182136Z 25016G22KT 17/M05 A2959 RMK A01 T01681050  RH  022%=      5-min Rain = 0
KCL1 182137Z 25017KT 17/M05 A2958 RMK A01 T01681049  RH  022%=      5-min Rain = 0
KCL1 182138Z 26017G23KT 17/M05 A2958 RMK A01 T01681050  RH  022%=      5-min Rain = 0
KCL1 182139Z 26013G18KT 17/M05 A2959 RMK A01 T01681050  RH  022%=      5-min Rain = 0
KCL1 182140Z 26012KT 17/M05 A2959 RMK A01 T01671050  RH  022%=      5-min Rain = 0
KCL1 182141Z 25014KT 17/M05 A2959 RMK A01 T01671050  RH  022%=      5-min Rain = 0
KCL1 182142Z 26013KT 17/M05 A2959 RMK A01 T01671050  RH  022%=      5-min Rain = 0
KCL1 182143Z 26013KT 17/M05 A2959 RMK A01 T01671049  RH  022%=      5-min Rain = 0
KCL1 182144Z 25011KT 17/M05 A2959 RMK A01 T01661049  RH  023%=      5-min Rain = 0
KCL1 182145Z 25013KT 17/M05 A2959 RMK A01 T01661048  RH  023%=      5-min Rain = 0
KCL1 182146Z 26011KT 17/M05 A2959 RMK A01 T01661047  RH  023%=      5-min Rain = 0
KCL1 182147Z 25009KT 17/M05 A2959 RMK A01 T01651046  RH  023%=      5-min Rain = 0
KCL1 182148Z 25011G17KT 17/M05 A2959 RMK A01 T01651045  RH  023%=      5-min Rain = 0
KCL1 182149Z 26013G18KT 17/M05 A2959 RMK A01 T01651045  RH  023%=      5-min Rain = 0
KCL1 182150Z 24013G20KT 16/M05 A2959 RMK A01 T01641045  RH  024%=      5-min Rain = 0
KCL1 182151Z 24013KT 16/M04 A296 RMK A01 T01641043  RH  024%=      5-min Rain = 0
KCL1 182152Z 25011KT 16/M04 A296 RMK A01 T01641043  RH  024%=      5-min Rain = 0
KCL1 182153Z 24013KT 16/M04 A296 RMK A01 T01641043  RH  024%=      5-min Rain = 0
KCL1 182154Z 25010G15KT 16/M04 A296 RMK A01 T01641042  RH  024%=      5-min Rain = 0
KCL1 182155Z 25011KT 16/M04 A296 RMK A01 T01641042  RH  024%=      5-min Rain = 0
KCL1 182156Z 24010G15KT 16/M04 A296 RMK A01 T01641042  RH  024%=      5-min Rain = 0
KCL1 182157Z 25011KT 16/M04 A296 RMK A01 T01631042  RH  024%=      5-min Rain = 0
KCL1 182158Z 25013KT 16/M04 A296 RMK A01 T01631042  RH  024%=      5-min Rain = 0
KCL1 182159Z 24012G17KT 16/M04 A296 RMK A01 T01631043  RH  024%=      5-min Rain = 0
KCL1 182200Z 24013G19KT 16/M04 A296 RMK A01 T01631043  RH  024%=      5-min Rain = 0
KCL1 182201Z 24016KT 16/M05 A296 RMK A01 T01631045  RH  024%=      5-min Rain = 0
KCL1 182202Z 24012G19KT 16/M05 A296 RMK A01 T01631046  RH  024%=      5-min Rain = 0
KCL1 182203Z 26014KT 16/M05 A296 RMK A01 T01631045  RH  024%=      5-min Rain = 0
KCL1 182204Z 25012KT 16/M05 A296 RMK A01 T01631047  RH  023%=      5-min Rain = 0
KCL1 182205Z 25013KT 16/M05 A296 RMK A01 T01631047  RH  023%=      5-min Rain = 0
KCL1 182206Z 24014KT 16/M05 A296 RMK A01 T01631048  RH  023%=      5-min Rain = 0
KCL1 182207Z 26012KT 16/M05 A296 RMK A01 T01631048  RH  023%=      5-min Rain = 0
KCL1 182208Z 25011G16KT 16/M05 A296 RMK A01 T01631048  RH  023%=      5-min Rain = 0
KCL1 182209Z 25013G18KT 16/M05 A296 RMK A01 T01631050  RH  023%=      5-min Rain = 0
KCL1 182210Z 25018G27KT 16/M05 A296 RMK A01 T01631052  RH  022%=      5-min Rain = 0
KCL1 182211Z 26014KT 16/M05 A296 RMK A01 T01631054  RH  022%=      5-min Rain = 0
KCL1 182212Z 25016KT 16/M05 A296 RMK A01 T01631054  RH  022%=      5-min Rain = 0
KCL1 182213Z 27013KT 16/M06 A296 RMK A01 T01631055  RH  022%=      5-min Rain = 0
KCL1 182214Z 25016G22KT 16/M06 A296 RMK A01 T01631056  RH  022%=      5-min Rain = 0
KCL1 182215Z 25015KT 16/M06 A296 RMK A01 T01631057  RH  022%=      5-min Rain = 0
KCL1 182216Z 26018G26KT 16/M06 A2961 RMK A01 T01641057  RH  022%=      5-min Rain = 0
KCL1 182217Z 26019G24KT 16/M06 A296 RMK A01 T01641059  RH  021%=      5-min Rain = 0
KCL1 182218Z 26020G26KT 16/M06 A296 RMK A01 T01631061  RH  021%=      5-min Rain = 0
KCL1 182219Z 26021G26KT 16/M06 A296 RMK A01 T01631063  RH  021%=      5-min Rain = 0
KCL1 182220Z 26017G23KT 16/M06 A2961 RMK A01 T01631064  RH  020%=      5-min Rain = 0
KCL1 182221Z 26018G24KT 16/M07 A296 RMK A01 T01631065  RH  020%=      5-min Rain = 0
KCL1 182222Z 27020KT 16/M07 A296 RMK A01 T01631066  RH  020%=      5-min Rain = 0
KCL1 182223Z 27018KT 16/M07 A296 RMK A01 T01631065  RH  020%=      5-min Rain = 0
KCL1 182224Z 27016KT 16/M07 A296 RMK A01 T01621066  RH  020%=      5-min Rain = 0
KCL1 182225Z 27016KT 16/M07 A296 RMK A01 T01631066  RH  020%=      5-min Rain = 0
KCL1 182226Z 27016KT 16/M07 A2961 RMK A01 T01621067  RH  020%=      5-min Rain = 0
KCL1 182227Z 27015KT 16/M07 A2961 RMK A01 T01621067  RH  020%=      5-min Rain = 0
KCL1 182228Z 25015KT 16/M07 A2961 RMK A01 T01621067  RH  020%=      5-min Rain = 0
KCL1 182229Z 26013KT 16/M07 A2961 RMK A01 T01621067  RH  020%=      5-min Rain = 0
KCL1 182230Z 26011KT 16/M07 A2961 RMK A01 T01621067  RH  020%=      5-min Rain = 0
KCL1 182231Z 26014G20KT 16/M07 A2961 RMK A01 T01621067  RH  020%=      5-min Rain = 0
KCL1 182232Z 26018KT 16/M07 A2961 RMK A01 T01621070  RH  020%=      5-min Rain = 0
KCL1 182233Z 26016KT 16/M07 A2961 RMK A01 T01621072  RH  019%=      5-min Rain = 0
KCL1 182234Z 26016KT 16/M07 A2961 RMK A01 T01621073  RH  019%=      5-min Rain = 0
KCL1 182235Z 25015G21KT 16/M07 A2961 RMK A01 T01621073  RH  019%=      5-min Rain = 0
KCL1 182236Z 27018G24KT 16/M07 A2961 RMK A01 T01621072  RH  019%=      5-min Rain = 0
KCL1 182237Z 26023G29KT 16/M07 A2961 RMK A01 T01631071  RH  019%=      5-min Rain = 0
KCL1 182238Z 27023G29KT 16/M07 A2961 RMK A01 T01621068  RH  020%=      5-min Rain = 0
KCL1 182239Z 27025KT 16/M07 A2961 RMK A01 T01621066  RH  020%=      5-min Rain = 0
KCL1 182240Z 27020KT 16/M07 A2962 RMK A01 T01611066  RH  020%=      5-min Rain = 0
KCL1 182241Z 27023G30KT 16/M07 A2962 RMK A01 T01611065  RH  021%=      5-min Rain = 0
KCL1 182242Z 27018G25KT 16/M06 A2962 RMK A01 T01611064  RH  021%=      5-min Rain = 0
KCL1 182243Z 27018G24KT 16/M06 A2962 RMK A01 T01601063  RH  021%=      5-min Rain = 0
KCL1 182244Z 27015KT 16/M06 A2962 RMK A01 T01601062  RH  021%=      5-min Rain = 0
KCL1 182245Z 30011KT 16/M06 A2962 RMK A01 T01591059  RH  022%=      5-min Rain = 0
KCL1 182246Z 29017G24KT 16/M06 A2962 RMK A01 T01581057  RH  022%=      5-min Rain = 0
KCL1 182247Z 30019G28KT 16/M05 A2962 RMK A01 T01571054  RH  023%=      5-min Rain = 0
KCL1 182248Z 30020G27KT 16/M05 A2963 RMK A01 T01551052  RH  024%=      5-min Rain = 0
KCL1 182249Z 31029G38KT 15/M05 A2963 RMK A01 T01531045  RH  025%=      5-min Rain = 0
KCL1 182250Z 34023G28KT 14/M03 A2964 RMK A01 T01431028  RH  031%=      5-min Rain = 0
KCL1 182251Z 35030G35KT 13/M02 A2963 RMK A01 T01291018  RH  036%=      5-min Rain = 0
KCL1 182252Z 35027G33KT 12/M01 A2964 RMK A01 T01191014  RH  040%=      5-min Rain = 0
KCL1 182253Z 34022G29KT 11/M01 A2964 RMK A01 T01141012  RH  042%=      5-min Rain = 0
KCL1 182254Z 35026G31KT 11/M01 A2964 RMK A01 T01121010  RH  043%=      5-min Rain = 0
KCL1 182255Z 35025G31KT 11/M01 A2964 RMK A01 T01091010  RH  044%=      5-min Rain = 0
KCL1 182256Z 35028G33KT 11/M01 A2964 RMK A01 T01061009  RH  045%=      5-min Rain = 0
KCL1 182257Z 35025G33KT 10/M01 A2964 RMK A01 T01041008  RH  046%=      5-min Rain = 0
KCL1 182258Z 34025G32KT 10/M01 A2964 RMK A01 T01021007  RH  047%=      5-min Rain = 0
KCL1 182259Z 35026KT 10/M01 A2965 RMK A01 T01001006  RH  047%=      5-min Rain = 0
KCL1 182300Z 35024G31KT 10/M01 A2965 RMK A01 T00981006  RH  048%=      5-min Rain = 0
KCL1 182301Z 35022G27KT 10/M01 A2965 RMK A01 T00971006  RH  049%=      5-min Rain = 0
KCL1 182302Z 35024G29KT 10/M01 A2965 RMK A01 T00961005  RH  049%=      5-min Rain = 0
KCL1 182303Z 35025G32KT 10/M01 A2965 RMK A01 T00961005  RH  050%=      5-min Rain = 0
KCL1 182304Z 35028G33KT 09/M01 A2965 RMK A01 T00941005  RH  050%=      5-min Rain = 0
KCL1 182305Z 35020G25KT 09/M00 A2966 RMK A01 T00931004  RH  050%=      5-min Rain = 0
KCL1 182306Z 35024G32KT 09/M00 A2966 RMK A01 T00921004  RH  051%=      5-min Rain = 0
KCL1 182307Z 36026KT 09/M00 A2966 RMK A01 T00911004  RH  052%=      5-min Rain = 0
KCL1 182308Z 36024KT 09/M00 A2965 RMK A01 T00891004  RH  052%=      5-min Rain = 0
KCL1 182309Z 00024G29KT 09/M00 A2965 RMK A01 T00881004  RH  053%=      5-min Rain = 0
KCL1 182310Z 00024G30KT 09/M00 A2966 RMK A01 T00861004  RH  053%=      5-min Rain = 0
KCL1 182311Z 01026KT 08/M00 A2966 RMK A01 T00841004  RH  054%=      5-min Rain = 0
KCL1 182312Z 00023KT 08/M00 A2966 RMK A01 T00821004  RH  055%=      5-min Rain = 0
KCL1 182313Z 36020G26KT 08/M00 A2966 RMK A01 T00811004  RH  055%=      5-min Rain = 0
KCL1 182314Z 01023G29KT 08/M00 A2966 RMK A01 T00811004  RH  055%=      5-min Rain = 0
KCL1 182315Z 00026KT 08/M00 A2966 RMK A01 T00801004  RH  055%=      5-min Rain = 0
KCL1 182316Z 36027G34KT 08/M00 A2966 RMK A01 T00791004  RH  056%=      5-min Rain = 0
KCL1 182317Z 36027G33KT 08/M00 A2966 RMK A01 T00781004  RH  056%=      5-min Rain = 0
KCL1 182318Z 36026G31KT 08/M00 A2966 RMK A01 T00771004  RH  056%=      5-min Rain = 0
KCL1 182319Z 00026G31KT 08/M00 A2966 RMK A01 T00761004  RH  057%=      5-min Rain = 0
KCL1 182320Z 36023G28KT 08/M00 A2966 RMK A01 T00761003  RH  057%=      5-min Rain = 0
KCL1 182321Z 00022KT 08/M00 A2966 RMK A01 T00761002  RH  058%=      5-min Rain = 0
KCL1 182322Z 00025G30KT 08/M00 A2966 RMK A01 T00751002  RH  058%=      5-min Rain = 0
KCL1 182323Z 36027G34KT 07/M00 A2966 RMK A01 T00731003  RH  059%=      5-min Rain = 0
KCL1 182324Z 00025G32KT 07/M00 A2966 RMK A01 T00711003  RH  059%=      5-min Rain = 0
KCL1 182325Z 00024G30KT 07/M01 A2966 RMK A01 T00681005  RH  060%=      5-min Rain = 0
KCL1 182326Z 36027G32KT 07/M01 A2966 RMK A01 T00661006  RH  060%=      5-min Rain = 0
KCL1 182327Z 36026G33KT 07/M01 A2966 RMK A01 T00651006  RH  061%=      5-min Rain = 0
KCL1 182328Z 35027G37KT 06/M01 A2966 RMK A01 T00641006  RH  061%=      5-min Rain = 0
KCL1 182329Z 35027G33KT 06/M01 A2966 RMK A01 T00631007  RH  061%=      5-min Rain = 0
KCL1 182330Z 35027G35KT 06/M01 A2967 RMK A01 T00621006  RH  062%=      5-min Rain = 0
KCL1 182331Z 35025G32KT 06/M01 A2967 RMK A01 T00611007  RH  062%=      5-min Rain = 0
KCL1 182332Z 35028G34KT 06/M01 A2967 RMK A01 T00601007  RH  062%=      5-min Rain = 0
KCL1 182333Z 35026KT 06/M01 A2966 RMK A01 T00591007  RH  063%=      5-min Rain = 0
KCL1 182334Z 35026KT 06/M01 A2966 RMK A01 T00581007  RH  063%=      5-min Rain = 0
KCL1 182335Z 35029G35KT 06/M01 A2967 RMK A01 T00571007  RH  064%=      5-min Rain = 0
KCL1 182336Z 35029G38KT 06/M01 A2967 RMK A01 T00551007  RH  064%=      5-min Rain = 0
KCL1 182337Z 36033G39KT 05/M01 A2967 RMK A01 T00531009  RH  065%=      5-min Rain = 0
KCL1 182338Z 35026G34KT 05/M01 A2967 RMK A01 T00501009  RH  065%=      5-min Rain = 0
KCL1 182339Z 35028KT 05/M01 A2967 RMK A01 T00491009  RH  066%=      5-min Rain = 0
KCL1 182340Z 36026G35KT 05/M01 A2968 RMK A01 T00481009  RH  067%=      5-min Rain = 0
KCL1 182341Z 36028G35KT 05/M01 A2968 RMK A01 T00461009  RH  067%=      5-min Rain = 0
KCL1 182342Z 35030G35KT 05/M01 A2968 RMK A01 T00451009  RH  068%=      5-min Rain = 0
KCL1 182343Z 36027KT 05/M01 A2968 RMK A01 T00451008  RH  069%=      5-min Rain = 0
KCL1 182344Z 00027G35KT 04/M01 A2968 RMK A01 T00441009  RH  069%=      5-min Rain = 0
KCL1 182345Z 35028G33KT 04/M01 A2968 RMK A01 T00431008  RH  069%=      5-min Rain = 0
KCL1 182346Z 36029G35KT 04/M01 A2968 RMK A01 T00421008  RH  070%=      5-min Rain = 0
KCL1 182347Z 36029G34KT 04/M01 A2968 RMK A01 T00411008  RH  070%=      5-min Rain = 0
KCL1 182348Z 36024G29KT 04/M01 A2968 RMK A01 T00411008  RH  070%=      5-min Rain = 0
KCL1 182349Z 35023G28KT 04/M01 A2968 RMK A01 T00401008  RH  071%=      5-min Rain = 0
KCL1 182350Z 35024G31KT 04/M01 A2968 RMK A01 T00401008  RH  071%=      5-min Rain = 0
KCL1 182351Z 35022G27KT 04/M01 A2969 RMK A01 T00401008  RH  071%=      5-min Rain = 0
KCL1 182352Z 35026G31KT 04/M01 A2969 RMK A01 T00391009  RH  071%=      5-min Rain = 0
KCL1 182353Z 34030G36KT 04/M01 A2969 RMK A01 T00391009  RH  071%=      5-min Rain = 0
KCL1 182354Z 35028G33KT 04/M01 A2969 RMK A01 T00391009  RH  071%=      5-min Rain = 0
KCL1 182355Z 34025G32KT 04/M01 A2969 RMK A01 T00381009  RH  071%=      5-min Rain = 0
KCL1 182356Z 35026G36KT 04/M01 A2969 RMK A01 T00371010  RH  071%=      5-min Rain = 0
KCL1 182357Z 35030KT 04/M01 A2969 RMK A01 T00371009  RH  072%=      5-min Rain = 0
KCL1 182358Z 35025G31KT 04/M01 A2969 RMK A01 T00361010  RH  072%=      5-min Rain = 0
KCL1 182359Z 35030G36KT 04/M01 A297 RMK A01 T00361009  RH  072%=      5-min Rain = 0
KCL1 190000Z 35030KT 04/M01 A297 RMK A01 T00351009  RH  073%=      5-min Rain = 0
KCL1 190001Z 34028KT 04/M01 A297 RMK A01 T00351009  RH  073%=      5-min Rain = 0
KCL1 190002Z 35029G35KT 03/M01 A297 RMK A01 T00341010  RH  073%=      5-min Rain = 0
KCL1 190003Z 34029G35KT 03/M01 A297 RMK A01 T00341010  RH  073%=      5-min Rain = 0
KCL1 190004Z 34028G35KT 03/M01 A297 RMK A01 T00341010  RH  073%=      5-min Rain = 0
KCL1 190005Z 35030G38KT 03/M01 A2971 RMK A01 T00331011  RH  073%=      5-min Rain = 0
KCL1 190006Z 34029G36KT 03/M01 A2971 RMK A01 T00331012  RH  073%=      5-min Rain = 0
KCL1 190007Z 35033G40KT 03/M01 A2971 RMK A01 T00321012  RH  073%=      5-min Rain = 0
KCL1 190008Z 35030G40KT 03/M01 A2971 RMK A01 T00311012  RH  073%=      5-min Rain = 0
KCL1 190009Z 35030KT 03/M01 A2971 RMK A01 T00321011  RH  073%=      5-min Rain = 0
KCL1 190010Z 35029G38KT 03/M01 A2972 RMK A01 T00311011  RH  073%=      5-min Rain = 0
KCL1 190011Z 35027G36KT 03/M01 A2972 RMK A01 T00311012  RH  073%=      5-min Rain = 0
KCL1 190012Z 35028G34KT 03/M01 A2972 RMK A01 T00311012  RH  073%=      5-min Rain = 0
KCL1 190013Z 35029G34KT 03/M01 A2972 RMK A01 T00311011  RH  074%=      5-min Rain = 0
KCL1 190014Z 35033G38KT 03/M01 A2971 RMK A01 T00311011  RH  074%=      5-min Rain = 0
KCL1 190015Z 35035KT 03/M01 A2972 RMK A01 T00311011  RH  074%=      5-min Rain = 0
KCL1 190016Z 35026G35KT 03/M01 A2972 RMK A01 T00301011  RH  074%=      5-min Rain = 0
KCL1 190017Z 34026KT 03/M01 A2972 RMK A01 T00301011  RH  074%=      5-min Rain = 0
KCL1 190018Z 34025G31KT 03/M01 A2972 RMK A01 T00301011  RH  074%=      5-min Rain = 0
KCL1 190019Z 34025KT 03/M01 A2972 RMK A01 T00301011  RH  074%=      5-min Rain = 0
KCL1 190020Z 34030G39KT 03/M01 A2972 RMK A01 T00301011  RH  074%=      5-min Rain = 0
KCL1 190021Z 34028G35KT 03/M01 A2972 RMK A01 T00301011  RH  075%=      5-min Rain = 0
KCL1 190022Z 34030G35KT 03/M01 A2972 RMK A01 T00291011  RH  075%=      5-min Rain = 0
KCL1 190023Z 34031G37KT 03/M01 A2973 RMK A01 T00291012  RH  074%=      5-min Rain = 0
KCL1 190024Z 35033G39KT 03/M01 A2973 RMK A01 T00281013  RH  074%=      5-min Rain = 0
KCL1 190025Z 35030G38KT 03/M01 A2973 RMK A01 T00281013  RH  074%=      5-min Rain = 0
KCL1 190026Z 35032G38KT 03/M01 A2973 RMK A01 T00271014  RH  075%=      5-min Rain = 0
KCL1 190027Z 35032G39KT 03/M01 A2973 RMK A01 T00261014  RH  075%=      5-min Rain = 0
KCL1 190028Z 35034G40KT 03/M02 A2973 RMK A01 T00251015  RH  075%=      5-min Rain = 0
KCL1 190029Z 35029KT 02/M02 A2974 RMK A01 T00241015  RH  075%=      5-min Rain = 0
KCL1 190030Z 35032G37KT 02/M02 A2974 RMK A01 T00241015  RH  075%=      5-min Rain = 0
KCL1 190031Z 35034G41KT 02/M02 A2974 RMK A01 T00241015  RH  075%=      5-min Rain = 0
KCL1 190032Z 35029G35KT 02/M02 A2974 RMK A01 T00241015  RH  075%=      5-min Rain = 0
KCL1 190033Z 35033G40KT 02/M02 A2974 RMK A01 T00241015  RH  076%=      5-min Rain = 0
KCL1 190034Z 35027G35KT 02/M02 A2974 RMK A01 T00231015  RH  076%=      5-min Rain = 0
KCL1 190035Z 35022G28KT 02/M02 A2975 RMK A01 T00231015  RH  076%=      5-min Rain = 0
KCL1 190036Z 35024G38KT 02/M02 A2975 RMK A01 T00231015  RH  076%=      5-min Rain = 0
KCL1 190037Z 35031G40KT 02/M02 A2975 RMK A01 T00231015  RH  076%=      5-min Rain = 0
KCL1 190038Z 35033G38KT 02/M02 A2975 RMK A01 T00231015  RH  076%=      5-min Rain = 0
KCL1 190039Z 35028G35KT 02/M02 A2975 RMK A01 T00221015  RH  076%=      5-min Rain = 0
KCL1 190040Z 35026G32KT 02/M02 A2976 RMK A01 T00211015  RH  077%=      5-min Rain = 0
KCL1 190041Z 35029G35KT 02/M02 A2976 RMK A01 T00221015  RH  077%=      5-min Rain = 0
KCL1 190042Z 35027G34KT 02/M02 A2976 RMK A01 T00211015  RH  077%=      5-min Rain = 0
KCL1 190043Z 35028G33KT 02/M02 A2976 RMK A01 T00211015  RH  077%=      5-min Rain = 0
KCL1 190044Z 35028G33KT 02/M01 A2976 RMK A01 T00221014  RH  077%=      5-min Rain = 0
KCL1 190045Z 36029G34KT 02/M01 A2976 RMK A01 T00211014  RH  077%=      5-min Rain = 0
KCL1 190046Z 35025G31KT 02/M01 A2976 RMK A01 T00211014  RH  077%=      5-min Rain = 0
KCL1 190047Z 35024G30KT 02/M01 A2977 RMK A01 T00221014  RH  077%=      5-min Rain = 0
KCL1 190048Z 35027G34KT 02/M01 A2977 RMK A01 T00221014  RH  077%=      5-min Rain = 0
KCL1 190049Z 35022KT 02/M01 A2977 RMK A01 T00221014  RH  077%=      5-min Rain = 0
KCL1 190050Z 35027G37KT 02/M01 A2977 RMK A01 T00221014  RH  077%=      5-min Rain = 0
KCL1 190051Z 35032G39KT 02/M01 A2977 RMK A01 T00221014  RH  077%=      5-min Rain = 0
KCL1 190052Z 36030G38KT 02/M02 A2977 RMK A01 T00211015  RH  077%=      5-min Rain = 0
KCL1 190053Z 35036G44KT 02/M02 A2977 RMK A01 T00211015  RH  077%=      5-min Rain = 0
KCL1 190054Z 36029G38KT 02/M02 A2977 RMK A01 T00201015  RH  077%=      5-min Rain = 0
KCL1 190055Z 35030G35KT 02/M02 A2978 RMK A01 T00201015  RH  077%=      5-min Rain = 0
KCL1 190056Z 35029G36KT 02/M02 A2978 RMK A01 T00201016  RH  077%=      5-min Rain = 0
KCL1 190057Z 35028G40KT 02/M02 A2978 RMK A01 T00191018  RH  077%=      5-min Rain = 0
KCL1 190058Z 36030G35KT 02/M02 A2978 RMK A01 T00181018  RH  077%=      5-min Rain = 0
KCL1 190059Z 35033G39KT 02/M02 A2978 RMK A01 T00181019  RH  077%=      5-min Rain = 0
KCL1 190100Z 35030G38KT 02/M02 A2979 RMK A01 T00171018  RH  077%=      5-min Rain = 0
KCL1 190101Z 35031G37KT 02/M02 A2978 RMK A01 T00161019  RH  078%=      5-min Rain = 0
KCL1 190102Z 35026G36KT 02/M02 A2979 RMK A01 T00161018  RH  078%=      5-min Rain = 0
KCL1 190103Z 35028KT 02/M02 A2979 RMK A01 T00161018  RH  078%=      5-min Rain = 0
KCL1 190104Z 35028KT 02/M02 A2979 RMK A01 T00161018  RH  078%=      5-min Rain = 0
KCL1 190105Z 35028G33KT 02/M02 A2979 RMK A01 T00161018  RH  078%=      5-min Rain = 0
KCL1 190106Z 35029G37KT 02/M02 A2979 RMK A01 T00161017  RH  079%=      5-min Rain = 0
KCL1 190107Z 35026G32KT 02/M02 A2979 RMK A01 T00161017  RH  079%=      5-min Rain = 0
KCL1 190108Z 35029G37KT 02/M02 A2979 RMK A01 T00161017  RH  079%=      5-min Rain = 0
KCL1 190109Z 35035G43KT 02/M02 A2979 RMK A01 T00151018  RH  079%=      5-min Rain = 0
KCL1 190110Z 35034G43KT 02/M02 A2979 RMK A01 T00161018  RH  078%=      5-min Rain = 0
KCL1 190111Z 35029G39KT 02/M02 A2979 RMK A01 T00151019  RH  078%=      5-min Rain = 0
KCL1 190112Z 34029G37KT 02/M02 A2979 RMK A01 T00151019  RH  078%=      5-min Rain = 0
KCL1 190113Z 35027G36KT 01/M02 A298 RMK A01 T00141020  RH  078%=      5-min Rain = 0
KCL1 190114Z 35030G35KT 01/M02 A298 RMK A01 T00141020  RH  078%=      5-min Rain = 0
KCL1 190115Z 35032G40KT 01/M02 A298 RMK A01 T00141020  RH  078%=      5-min Rain = 0
KCL1 190116Z 35027G34KT 01/M02 A298 RMK A01 T00141020  RH  078%=      5-min Rain = 0
KCL1 190117Z 35029G35KT 01/M02 A298 RMK A01 T00141020  RH  078%=      5-min Rain = 0
KCL1 190118Z 34030G37KT 01/M02 A298 RMK A01 T00141020  RH  078%=      5-min Rain = 0
KCL1 190119Z 34031G41KT 01/M02 A298 RMK A01 T00141020  RH  078%=      5-min Rain = 0
KCL1 190120Z 34035G42KT 01/M02 A298 RMK A01 T00141021  RH  078%=      5-min Rain = 0
KCL1 190121Z 35032G37KT 01/M02 A298 RMK A01 T00131021  RH  078%=      5-min Rain = 0
KCL1 190122Z 35027G34KT 01/M02 A2981 RMK A01 T00131021  RH  078%=      5-min Rain = 0
KCL1 190123Z 35027G33KT 01/M02 A2981 RMK A01 T00131021  RH  078%=      5-min Rain = 0
KCL1 190124Z 34025G31KT 01/M02 A2981 RMK A01 T00131021  RH  078%=      5-min Rain = 0
KCL1 190125Z 35030G36KT 01/M02 A2981 RMK A01 T00131021  RH  078%=      5-min Rain = 0
KCL1 190126Z 35026G36KT 01/M02 A2981 RMK A01 T00131021  RH  078%=      5-min Rain = 0
KCL1 190127Z 35024G30KT 01/M02 A2981 RMK A01 T00131021  RH  078%=      5-min Rain = 0
KCL1 190128Z 34025G30KT 01/M02 A2981 RMK A01 T00131021  RH  078%=      5-min Rain = 0
KCL1 190129Z 35027G34KT 01/M02 A2982 RMK A01 T00131021  RH  078%=      5-min Rain = 0
KCL1 190130Z 35030KT 01/M02 A2981 RMK A01 T00131021  RH  078%=      5-min Rain = 0
KCL1 190131Z 35025G31KT 01/M02 A2982 RMK A01 T00131021  RH  078%=      5-min Rain = 0
KCL1 190132Z 34028G34KT 01/M02 A2982 RMK A01 T00131021  RH  078%=      5-min Rain = 0
KCL1 190133Z 35030G36KT 01/M02 A2982 RMK A01 T00131020  RH  078%=      5-min Rain = 0
KCL1 190134Z 34024G30KT 01/M02 A2982 RMK A01 T00131020  RH  079%=      5-min Rain = 0
KCL1 190135Z 35029G34KT 01/M02 A2982 RMK A01 T00121021  RH  079%=      5-min Rain = 0
KCL1 190136Z 34026G36KT 01/M02 A2982 RMK A01 T00121021  RH  079%=      5-min Rain = 0
KCL1 190137Z 34026G34KT 01/M02 A2982 RMK A01 T00121021  RH  079%=      5-min Rain = 0
KCL1 190138Z 34029G37KT 01/M02 A2982 RMK A01 T00121021  RH  079%=      5-min Rain = 0
KCL1 190139Z 35027G33KT 01/M02 A2982 RMK A01 T00121022  RH  078%=      5-min Rain = 0
KCL1 190140Z 34029G35KT 01/M02 A2982 RMK A01 T00121022  RH  078%=      5-min Rain = 0
KCL1 190141Z 34027G38KT 01/M02 A2982 RMK A01 T00121022  RH  078%=      5-min Rain = 0
KCL1 190142Z 34031G39KT 01/M02 A2982 RMK A01 T00121023  RH  078%=      5-min Rain = 0
KCL1 190143Z 34031G38KT 01/M02 A2983 RMK A01 T00121023  RH  078%=      5-min Rain = 0
KCL1 190144Z 34031G37KT 01/M02 A2982 RMK A01 T00121024  RH  077%=      5-min Rain = 0
KCL1 190145Z 35027G33KT 01/M02 A2983 RMK A01 T00121024  RH  077%=      5-min Rain = 0
KCL1 190146Z 34031G41KT 01/M02 A2983 RMK A01 T00121024  RH  077%=      5-min Rain = 0
KCL1 190147Z 35031G38KT 01/M03 A2983 RMK A01 T00121025  RH  077%=      5-min Rain = 0
KCL1 190148Z 34033G39KT 01/M02 A2983 RMK A01 T00121024  RH  077%=      5-min Rain = 0
KCL1 190149Z 34030G35KT 01/M02 A2983 RMK A01 T00121024  RH  077%=      5-min Rain = 0
KCL1 190150Z 35027G35KT 01/M02 A2984 RMK A01 T00121024  RH  077%=      5-min Rain = 0
KCL1 190151Z 35024G31KT 01/M02 A2984 RMK A01 T00121023  RH  077%=      5-min Rain = 0
KCL1 190152Z 34024KT 01/M02 A2984 RMK A01 T00121023  RH  077%=      5-min Rain = 0
KCL1 190153Z 34024G33KT 01/M02 A2984 RMK A01 T00121023  RH  077%=      5-min Rain = 0
KCL1 190154Z 33028G40KT 01/M02 A2984 RMK A01 T00121023  RH  077%=      5-min Rain = 0
KCL1 190155Z 34030G41KT 01/M02 A2984 RMK A01 T00121024  RH  077%=      5-min Rain = 0
KCL1 190156Z 34034G40KT 01/M03 A2984 RMK A01 T00121025  RH  077%=      5-min Rain = 0
KCL1 190157Z 34032G42KT 01/M03 A2984 RMK A01 T00111026  RH  076%=      5-min Rain = 0
KCL1 190158Z 34032G37KT 01/M03 A2984 RMK A01 T00111026  RH  076%=      5-min Rain = 0
KCL1 190159Z 34030G39KT 01/M03 A2984 RMK A01 T00111027  RH  076%=      5-min Rain = 0
KCL1 190200Z 34034G40KT 01/M03 A2984 RMK A01 T00101028  RH  076%=      5-min Rain = 0
KCL1 190201Z 34026G34KT 01/M03 A2985 RMK A01 T00101028  RH  076%=      5-min Rain = 0
KCL1 190202Z 34030G42KT 01/M03 A2985 RMK A01 T00101028  RH  076%=      5-min Rain = 0
KCL1 190203Z 34032G37KT 01/M03 A2984 RMK A01 T00101029  RH  075%=      5-min Rain = 0
KCL1 190204Z 34035G44KT 01/M03 A2984 RMK A01 T00101030  RH  075%=      5-min Rain = 0
KCL1 190205Z 34031G37KT 01/M03 A2985 RMK A01 T00101030  RH  075%=      5-min Rain = 0
KCL1 190206Z 34032G40KT 01/M03 A2985 RMK A01 T00101030  RH  075%=      5-min Rain = 0
KCL1 190207Z 34029G36KT 01/M03 A2985 RMK A01 T00091029  RH  075%=      5-min Rain = 0
KCL1 190208Z 34029G37KT 01/M03 A2985 RMK A01 T00101029  RH  075%=      5-min Rain = 0
KCL1 190209Z 34029G34KT 01/M03 A2985 RMK A01 T00091029  RH  075%=      5-min Rain = 0
KCL1 190210Z 34031G36KT 01/M03 A2985 RMK A01 T00091029  RH  076%=      5-min Rain = 0
KCL1 190211Z 34030G38KT 01/M03 A2985 RMK A01 T00091028  RH  076%=      5-min Rain = 0
KCL1 190212Z 34027G34KT 01/M03 A2985 RMK A01 T00091028  RH  076%=      5-min Rain = 0
KCL1 190213Z 34026G32KT 01/M03 A2985 RMK A01 T00091027  RH  077%=      5-min Rain = 0
KCL1 190214Z 35021G29KT 01/M03 A2986 RMK A01 T00091027  RH  077%=      5-min Rain = 0
KCL1 190215Z 34028G36KT 01/M03 A2986 RMK A01 T00091026  RH  077%=      5-min Rain = 0
KCL1 190216Z 34030G37KT 01/M03 A2986 RMK A01 T00091026  RH  078%=      5-min Rain = 0
KCL1 190217Z 34035KT 01/M03 A2985 RMK A01 T00081026  RH  078%=      5-min Rain = 0
KCL1 190218Z 34029G37KT 01/M03 A2986 RMK A01 T00081026  RH  078%=      5-min Rain = 0
KCL1 190219Z 34033G40KT 01/M03 A2986 RMK A01 T00081026  RH  078%=      5-min Rain = 0
KCL1 190220Z 34030KT 01/M03 A2986 RMK A01 T00071027  RH  077%=      5-min Rain = 0
KCL1 190221Z 34033G39KT 01/M03 A2986 RMK A01 T00071028  RH  077%=      5-min Rain = 0
KCL1 190222Z 34033G41KT 01/M03 A2986 RMK A01 T00071029  RH  077%=      5-min Rain = 0
KCL1 190223Z 34032G38KT 01/M03 A2986 RMK A01 T00071030  RH  077%=      5-min Rain = 0
KCL1 190224Z 34027G35KT 01/M03 A2986 RMK A01 T00061031  RH  077%=      5-min Rain = 0
KCL1 190225Z 35032G40KT 01/M03 A2986 RMK A01 T00061031  RH  077%=      5-min Rain = 0
KCL1 190226Z 34033G41KT 01/M03 A2986 RMK A01 T00061031  RH  076%=      5-min Rain = 0
KCL1 190227Z 35035G43KT 01/M03 A2986 RMK A01 T00051031  RH  077%=      5-min Rain = 0
KCL1 190228Z 34032G44KT 01/M03 A2986 RMK A01 T00061030  RH  077%=      5-min Rain = 0
KCL1 190229Z 34038G48KT 01/M03 A2986 RMK A01 T00051030  RH  077%=      5-min Rain = 0
KCL1 190230Z 34030G42KT 01/M03 A2987 RMK A01 T00051030  RH  078%=      5-min Rain = 0
KCL1 190231Z 34037G46KT 00/M03 A2986 RMK A01 T00041029  RH  078%=      5-min Rain = 0
KCL1 190232Z 35032G41KT 00/M03 A2987 RMK A01 T00041030  RH  078%=      5-min Rain = 0
KCL1 190233Z 34032G37KT 00/M03 A2987 RMK A01 T00031029  RH  079%=      5-min Rain = 0
KCL1 190234Z 35033G40KT 00/M03 A2987 RMK A01 T00031028  RH  079%=      5-min Rain = 0
KCL1 190235Z 34027G33KT 00/M03 A2987 RMK A01 T00031028  RH  080%=      5-min Rain = 0
KCL1 190236Z 34028G35KT 00/M03 A2987 RMK A01 T00031028  RH  080%=      5-min Rain = 0
KCL1 190237Z 34033G42KT 00/M03 A2987 RMK A01 T00031028  RH  080%=      5-min Rain = 0
KCL1 190238Z 34033G42KT 00/M03 A2987 RMK A01 T00031029  RH  079%=      5-min Rain = 0
KCL1 190239Z 34027G37KT 00/M03 A2987 RMK A01 T00031029  RH  079%=      5-min Rain = 0
KCL1 190240Z 34029G36KT 00/M03 A2987 RMK A01 T00031029  RH  079%=      5-min Rain = 0
KCL1 190241Z 34033G41KT 00/M03 A2987 RMK A01 T00031029  RH  079%=      5-min Rain = 0
KCL1 190242Z 34037G44KT 00/M03 A2986 RMK A01 T00031030  RH  079%=      5-min Rain = 0
KCL1 190243Z 35035KT 00/M03 A2987 RMK A01 T00031031  RH  078%=      5-min Rain = 0
KCL1 190244Z 34031G36KT 00/M03 A2987 RMK A01 T00021030  RH  079%=      5-min Rain = 0
KCL1 190245Z 34032G40KT 00/M03 A2987 RMK A01 T00021030  RH  079%=      5-min Rain = 0
KCL1 190246Z 34034G40KT 00/M03 A2987 RMK A01 T00021031  RH  079%=      5-min Rain = 0
KCL1 190247Z 34032G44KT 00/M03 A2987 RMK A01 T00021031  RH  078%=      5-min Rain = 0
KCL1 190248Z 34028G35KT 00/M03 A2987 RMK A01 T00021031  RH  078%=      5-min Rain = 0
KCL1 190249Z 34033G44KT 00/M03 A2988 RMK A01 T00021032  RH  078%=      5-min Rain = 0
KCL1 190250Z 34034G44KT 00/M03 A2987 RMK A01 T00021032  RH  078%=      5-min Rain = 0
KCL1 190251Z 34032G39KT 00/M03 A2987 RMK A01 T00011032  RH  078%=      5-min Rain = 0
KCL1 190252Z 34035G43KT 00/M03 A2987 RMK A01 T00011032  RH  078%=      5-min Rain = 0
KCL1 190253Z 34033G41KT 00/M03 A2987 RMK A01 T00011032  RH  079%=      5-min Rain = 0
KCL1 190254Z 34031KT 00/03 A2987 RMK A01 T00000-31  RH  079%=      5-min Rain = 0
KCL1 190255Z 35033G39KT 00/03 A2987 RMK A01 T00-00-31  RH  080%=      5-min Rain = 0
KCL1 190256Z 35031G39KT M00/M03 A2988 RMK A01 T10011030  RH  081%=      5-min Rain = 0
KCL1 190257Z 34035G41KT M00/M03 A2988 RMK A01 T10011029  RH  081%=      5-min Rain = 0
KCL1 190258Z 34028G34KT M00/M03 A2988 RMK A01 T10011029  RH  082%=      5-min Rain = 0
KCL1 190259Z 35033G41KT M00/M03 A2987 RMK A01 T10011028  RH  082%=      5-min Rain = 0
KCL1 190300Z 35026G32KT M00/M03 A2988 RMK A01 T10011027  RH  083%=      5-min Rain = 0
KCL1 190301Z 34031G38KT M00/M03 A2988 RMK A01 T10011027  RH  083%=      5-min Rain = 0
KCL1 190302Z 35025G32KT M00/M03 A2988 RMK A01 T10011026  RH  084%=      5-min Rain = 0
KCL1 190303Z 35029G38KT M00/M03 A2988 RMK A01 T10021025  RH  084%=      5-min Rain = 0
KCL1 190304Z 35028G36KT M00/M02 A2988 RMK A01 T10011024  RH  084%=      5-min Rain = 0
KCL1 190305Z 34032KT M00/M02 A2988 RMK A01 T10021024  RH  085%=      5-min Rain = 0
KCL1 190306Z 34030G36KT M00/M02 A2988 RMK A01 T10021023  RH  085%=      5-min Rain = 0
KCL1 190307Z 34029G38KT M00/M02 A2988 RMK A01 T10021023  RH  086%=      5-min Rain = 0
KCL1 190308Z 34029G39KT M00/M02 A2988 RMK A01 T10021023  RH  086%=      5-min Rain = 0
KCL1 190309Z 35032G39KT M00/M02 A2988 RMK A01 T10021023  RH  086%=      5-min Rain = 0
KCL1 190310Z 34031G38KT M00/M02 A2988 RMK A01 T10021023  RH  086%=      5-min Rain = 0
KCL1 190311Z 34031G36KT M00/M02 A2988 RMK A01 T10021022  RH  086%=      5-min Rain = 0
KCL1 190312Z 34030G36KT M00/M02 A2988 RMK A01 T10031023  RH  087%=      5-min Rain = 0
KCL1 190313Z 34030G37KT M00/M02 A2988 RMK A01 T10031022  RH  087%=      5-min Rain = 0
KCL1 190314Z 34028G33KT M00/M02 A2989 RMK A01 T10031021  RH  087%=      5-min Rain = 0
KCL1 190315Z 34029KT M00/M02 A2989 RMK A01 T10031021  RH  088%=      5-min Rain = 0
KCL1 190316Z 34032G37KT M00/M02 A2989 RMK A01 T10031021  RH  088%=      5-min Rain = 0
KCL1 190317Z 34029G34KT M00/M02 A2989 RMK A01 T10031021  RH  088%=      5-min Rain = 0
KCL1 190318Z 34032G39KT M00/M02 A2989 RMK A01 T10031022  RH  087%=      5-min Rain = 0
KCL1 190319Z 34028G33KT M00/M02 A2989 RMK A01 T10031023  RH  086%=      5-min Rain = 0
KCL1 190320Z 34032G42KT M00/M02 A2989 RMK A01 T10031023  RH  086%=      5-min Rain = 0
KCL1 190321Z 35029G34KT M00/M02 A2989 RMK A01 T10031024  RH  085%=      5-min Rain = 0
KCL1 190322Z 35032G38KT M00/M03 A2989 RMK A01 T10031025  RH  085%=      5-min Rain = 0
KCL1 190323Z 34030G35KT M00/M03 A2989 RMK A01 T10031025  RH  085%=      5-min Rain = 0
KCL1 190324Z 34032G39KT M00/M03 A2989 RMK A01 T10031025  RH  085%=      5-min Rain = 0
KCL1 190325Z 35028G37KT M00/M02 A299 RMK A01 T10031024  RH  086%=      5-min Rain = 0
KCL1 190326Z 34025G30KT M00/M02 A299 RMK A01 T10031024  RH  086%=      5-min Rain = 0
KCL1 190327Z 34024G31KT M00/M02 A299 RMK A01 T10031023  RH  087%=      5-min Rain = 0
KCL1 190328Z 35027G38KT M00/M02 A299 RMK A01 T10041022  RH  087%=      5-min Rain = 0
KCL1 190329Z 34029G35KT M00/M02 A299 RMK A01 T10041022  RH  087%=      5-min Rain = 0
KCL1 190330Z 34031G39KT M00/M02 A299 RMK A01 T10041023  RH  087%=      5-min Rain = 0
KCL1 190331Z 34028G34KT M00/M02 A299 RMK A01 T10041024  RH  086%=      5-min Rain = 0
KCL1 190332Z 34031G40KT M00/M02 A299 RMK A01 T10041024  RH  086%=      5-min Rain = 0
KCL1 190333Z 35030G36KT M00/M03 A299 RMK A01 T10041025  RH  086%=      5-min Rain = 0
KCL1 190334Z 34032G37KT M00/M03 A299 RMK A01 T10041025  RH  085%=      5-min Rain = 0
KCL1 190335Z 34032G38KT M00/M03 A2991 RMK A01 T10041025  RH  085%=      5-min Rain = 0
KCL1 190336Z 35030G39KT M00/M03 A2991 RMK A01 T10041025  RH  086%=      5-min Rain = 0
KCL1 190337Z 35031G38KT M00/M03 A2991 RMK A01 T10041025  RH  086%=      5-min Rain = 0
KCL1 190338Z 34034G40KT M00/M03 A299 RMK A01 T10041025  RH  086%=      5-min Rain = 0
KCL1 190339Z 34035KT M00/M02 A2991 RMK A01 T10031024  RH  086%=      5-min Rain = 0
KCL1 190340Z 34030G35KT M00/M02 A2991 RMK A01 T10031024  RH  086%=      5-min Rain = 0
KCL1 190341Z 34033G39KT M00/M02 A2991 RMK A01 T10031023  RH  086%=      5-min Rain = 0
KCL1 190342Z 34032G38KT M00/M02 A2991 RMK A01 T10031024  RH  086%=      5-min Rain = 0
KCL1 190343Z 34031G39KT M00/M03 A2991 RMK A01 T10031025  RH  085%=      5-min Rain = 0
KCL1 190344Z 34030G41KT M00/M03 A2992 RMK A01 T10031026  RH  085%=      5-min Rain = 0
KCL1 190345Z 35036G42KT M00/M03 A2992 RMK A01 T10031027  RH  084%=      5-min Rain = 0
KCL1 190346Z 35033G45KT M00/M03 A2992 RMK A01 T10031029  RH  083%=      5-min Rain = 0
KCL1 190347Z 35036G47KT M00/M03 A2992 RMK A01 T10031030  RH  082%=      5-min Rain = 0
KCL1 190348Z 34036G47KT M00/M03 A2992 RMK A01 T10031031  RH  081%=      5-min Rain = 0
KCL1 190349Z 35039G47KT M00/M03 A2992 RMK A01 T10021031  RH  081%=      5-min Rain = 0
KCL1 190350Z 35038G45KT M00/M03 A2992 RMK A01 T10031033  RH  080%=      5-min Rain = 0
KCL1 190351Z 35038G45KT M00/M03 A2992 RMK A01 T10021033  RH  080%=      5-min Rain = 0
KCL1 190352Z 34031G37KT M00/M03 A2992 RMK A01 T10031033  RH  080%=      5-min Rain = 0
KCL1 190353Z 34030G35KT M00/M03 A2992 RMK A01 T10021032  RH  080%=      5-min Rain = 0
KCL1 190354Z 34035G40KT M00/M03 A2992 RMK A01 T10021032  RH  080%=      5-min Rain = 0
KCL1 190355Z 34036G42KT M00/M03 A2992 RMK A01 T10021032  RH  080%=      5-min Rain = 0
KCL1 190356Z 35035G42KT M00/M03 A2992 RMK A01 T10021033  RH  080%=      5-min Rain = 0
KCL1 190357Z 34035G44KT M00/M03 A2992 RMK A01 T10021032  RH  080%=      5-min Rain = 0
KCL1 190358Z 34034G41KT M00/M03 A2992 RMK A01 T10021032  RH  080%=      5-min Rain = 0
KCL1 190359Z 34032G42KT M00/M03 A2992 RMK A01 T10031032  RH  081%=      5-min Rain = 0
KCL1 190400Z 34038G44KT M00/M03 A2992 RMK A01 T10031032  RH  081%=      5-min Rain = 0
KCL1 190401Z 34037G48KT M00/M03 A2992 RMK A01 T10031032  RH  081%=      5-min Rain = 0
KCL1 190402Z 34037G44KT M00/M03 A2992 RMK A01 T10041032  RH  081%=      5-min Rain = 0
KCL1 190403Z 34032G37KT M00/M03 A2993 RMK A01 T10041032  RH  081%=      5-min Rain = 0
KCL1 190404Z 35030G37KT M00/M03 A2993 RMK A01 T10041032  RH  082%=      5-min Rain = 0
KCL1 190405Z 34028G36KT M00/M03 A2993 RMK A01 T10041031  RH  082%=      5-min Rain = 0
KCL1 190406Z 34032G39KT M00/M03 A2993 RMK A01 T10041031  RH  082%=      5-min Rain = 0
KCL1 190407Z 34030G39KT M01/M03 A2994 RMK A01 T10051032  RH  082%=      5-min Rain = 0
KCL1 190408Z 34028G34KT M01/M03 A2994 RMK A01 T10051031  RH  083%=      5-min Rain = 0
KCL1 190409Z 34028G33KT M01/M03 A2994 RMK A01 T10051030  RH  083%=      5-min Rain = 0
KCL1 190410Z 34028KT M01/M03 A2994 RMK A01 T10051030  RH  084%=      5-min Rain = 0
KCL1 190411Z 34034G41KT M01/M03 A2994 RMK A01 T10061030  RH  084%=      5-min Rain = 0
KCL1 190412Z 34032G38KT M01/M03 A2994 RMK A01 T10061030  RH  084%=      5-min Rain = 0
KCL1 190413Z 34031G37KT M01/M03 A2994 RMK A01 T10061030  RH  084%=      5-min Rain = 0
KCL1 190414Z 34033KT M01/M03 A2994 RMK A01 T10061030  RH  084%=      5-min Rain = 0
KCL1 190415Z 34031G38KT M01/M03 A2994 RMK A01 T10061029  RH  084%=      5-min Rain = 0
KCL1 190416Z 34031KT M01/M03 A2994 RMK A01 T10061029  RH  085%=      5-min Rain = 0
KCL1 190417Z 34027G32KT M01/M03 A2995 RMK A01 T10071029  RH  085%=      5-min Rain = 0
KCL1 190418Z 34026G38KT M01/M03 A2995 RMK A01 T10071028  RH  085%=      5-min Rain = 0
KCL1 190419Z 34027G36KT M01/M03 A2995 RMK A01 T10071028  RH  086%=      5-min Rain = 0
KCL1 190420Z 34032G39KT M01/M03 A2994 RMK A01 T10071027  RH  087%=      5-min Rain = 0
KCL1 190421Z 34028KT M01/M03 A2995 RMK A01 T10081026  RH  087%=      5-min Rain = 0
KCL1 190422Z 34026G36KT M01/M03 A2995 RMK A01 T10081026  RH  088%=      5-min Rain = 0
KCL1 190423Z 34026G41KT M01/M03 A2995 RMK A01 T10081025  RH  088%=      5-min Rain = 0
KCL1 190424Z 34031G37KT M01/M03 A2995 RMK A01 T10081025  RH  088%=      5-min Rain = 0
KCL1 190425Z 35032G38KT M01/M03 A2995 RMK A01 T10081026  RH  088%=      5-min Rain = 0
KCL1 190426Z 34028G37KT M01/M03 A2995 RMK A01 T10091027  RH  087%=      5-min Rain = 0
KCL1 190427Z 35027G41KT M01/M03 A2996 RMK A01 T10091028  RH  087%=      5-min Rain = 0
KCL1 190428Z 35035G41KT M01/M03 A2996 RMK A01 T10101028  RH  087%=      5-min Rain = 0
KCL1 190429Z 35027G35KT M01/M03 A2996 RMK A01 T10101029  RH  087%=      5-min Rain = 0
KCL1 190430Z 35030G36KT M01/M03 A2996 RMK A01 T10111029  RH  087%=      5-min Rain = 0
KCL1 190431Z 35031G39KT M01/M03 A2996 RMK A01 T10111029  RH  087%=      5-min Rain = 0
KCL1 190432Z 35026G33KT M01/M03 A2996 RMK A01 T10111030  RH  087%=      5-min Rain = 0
KCL1 190433Z 35029G34KT M01/M03 A2996 RMK A01 T10111029  RH  087%=      5-min Rain = 0
KCL1 190434Z 35025KT M01/M03 A2996 RMK A01 T10111029  RH  087%=      5-min Rain = 0
KCL1 190435Z 36024G34KT M01/M03 A2997 RMK A01 T10111029  RH  088%=      5-min Rain = 0
KCL1 190436Z 35024G32KT M01/M03 A2997 RMK A01 T10111029  RH  088%=      5-min Rain = 0
KCL1 190437Z 35025G39KT M01/M03 A2997 RMK A01 T10111028  RH  088%=      5-min Rain = 0
KCL1 190438Z 35026G33KT M01/M03 A2997 RMK A01 T10111029  RH  088%=      5-min Rain = 0
KCL1 190439Z 35029G34KT M01/M03 A2997 RMK A01 T10111029  RH  087%=      5-min Rain = 0
KCL1 190440Z 35034G40KT M01/M03 A2997 RMK A01 T10111029  RH  087%=      5-min Rain = 0
KCL1 190441Z 35032KT M01/M03 A2997 RMK A01 T10111030  RH  087%=      5-min Rain = 0
KCL1 190442Z 35029KT M01/M03 A2997 RMK A01 T10101029  RH  087%=      5-min Rain = 0
KCL1 190443Z 35030G39KT M01/M03 A2997 RMK A01 T10111029  RH  087%=      5-min Rain = 0
KCL1 190444Z 36026G32KT M01/M03 A2997 RMK A01 T10111029  RH  087%=      5-min Rain = 0
KCL1 190445Z 35031G36KT M01/M03 A2997 RMK A01 T10111029  RH  088%=      5-min Rain = 0
KCL1 190446Z 35025G30KT M01/M03 A2997 RMK A01 T10101028  RH  088%=      5-min Rain = 0
KCL1 190447Z 34029G35KT M01/M03 A2997 RMK A01 T10101028  RH  088%=      5-min Rain = 0
KCL1 190448Z 34031G37KT M01/M03 A2997 RMK A01 T10101027  RH  088%=      5-min Rain = 0
KCL1 190449Z 35031G36KT M01/M03 A2997 RMK A01 T10101027  RH  088%=      5-min Rain = 0
KCL1 190450Z 35029G35KT M01/M03 A2997 RMK A01 T10101026  RH  089%=      5-min Rain = 0
KCL1 190451Z 35026KT M01/M03 A2997 RMK A01 T10111026  RH  089%=      5-min Rain = 0
KCL1 190452Z 35026G31KT M01/M03 A2997 RMK A01 T10111026  RH  090%=      5-min Rain = 0
KCL1 190453Z 34025G31KT M01/M03 A2997 RMK A01 T10111025  RH  090%=      5-min Rain = 0
KCL1 190454Z 34021G26KT M01/M03 A2997 RMK A01 T10111025  RH  090%=      5-min Rain = 0
KCL1 190455Z 34023G28KT M01/M02 A2997 RMK A01 T10111024  RH  091%=      5-min Rain = 0
KCL1 190456Z 35022G27KT M01/M02 A2997 RMK A01 T10111024  RH  091%=      5-min Rain = 0
KCL1 190457Z 35026G32KT M01/M02 A2997 RMK A01 T10111024  RH  091%=      5-min Rain = 0
KCL1 190458Z 34025G30KT M01/M02 A2997 RMK A01 T10111024  RH  091%=      5-min Rain = 0
KCL1 190459Z 35025G31KT M01/M02 A2997 RMK A01 T10111024  RH  091%=      5-min Rain = 0
KCL1 190500Z 35025G33KT M01/M02 A2997 RMK A01 T10111024  RH  091%=      5-min Rain = 0
KCL1 190501Z 35024G31KT M01/M02 A2998 RMK A01 T10101023  RH  091%=      5-min Rain = 0
KCL1 190502Z 35023G30KT M01/M02 A2998 RMK A01 T10111024  RH  091%=      5-min Rain = 0
KCL1 190503Z 35024G34KT M01/M02 A2998 RMK A01 T10101023  RH  091%=      5-min Rain = 0
KCL1 190504Z 35027G32KT M01/M02 A2998 RMK A01 T10101023  RH  091%=      5-min Rain = 0
KCL1 190505Z 34025G33KT M01/M02 A2998 RMK A01 T10101024  RH  091%=      5-min Rain = 0
KCL1 190506Z 35026KT M01/M02 A2998 RMK A01 T10111024  RH  091%=      5-min Rain = 0
KCL1 190507Z 34028KT M01/M02 A2998 RMK A01 T10111024  RH  091%=      5-min Rain = 0
KCL1 190508Z 35024G32KT M01/M02 A2998 RMK A01 T10101024  RH  091%=      5-min Rain = 0
KCL1 190509Z 35027G35KT M01/M02 A2998 RMK A01 T10101024  RH  090%=      5-min Rain = 0
KCL1 190510Z 34021G29KT M01/M02 A2998 RMK A01 T10101024  RH  090%=      5-min Rain = 0
KCL1 190511Z 34026G35KT M01/M02 A2999 RMK A01 T10101024  RH  090%=      5-min Rain = 0
KCL1 190512Z 34023KT M01/M02 A2998 RMK A01 T10101024  RH  090%=      5-min Rain = 0
KCL1 190513Z 34023KT M01/M02 A2999 RMK A01 T10101024  RH  090%=      5-min Rain = 0
KCL1 190514Z 35025G32KT M01/M02 A2999 RMK A01 T10101023  RH  090%=      5-min Rain = 0
KCL1 190515Z 35024KT M01/M02 A2999 RMK A01 T10101023  RH  090%=      5-min Rain = 0
KCL1 190516Z 35024G31KT M01/M02 A2999 RMK A01 T10101023  RH  091%=      5-min Rain = 0
KCL1 190517Z 34025KT M01/M02 A2999 RMK A01 T10101023  RH  091%=      5-min Rain = 0
KCL1 190518Z 34025G31KT M01/M02 A2999 RMK A01 T10101023  RH  091%=      5-min Rain = 0
KCL1 190519Z 35024G30KT M01/M02 A2999 RMK A01 T10101023  RH  091%=      5-min Rain = 0
KCL1 190520Z 34025KT M01/M02 A2999 RMK A01 T10101022  RH  091%=      5-min Rain = 0
KCL1 190521Z 34028G34KT M01/M02 A2999 RMK A01 T10101022  RH  091%=      5-min Rain = 0
KCL1 190522Z 34022G30KT M01/M02 A2999 RMK A01 T10101022  RH  092%=      5-min Rain = 0
KCL1 190523Z 34020G26KT M01/M02 A2999 RMK A01 T10101022  RH  092%=      5-min Rain = 0
KCL1 190524Z 34024G36KT M01/M02 A2999 RMK A01 T10101021  RH  093%=      5-min Rain = 0
KCL1 190525Z 34027G35KT M01/M02 A2999 RMK A01 T10101021  RH  093%=      5-min Rain = 0
KCL1 190526Z 34024G34KT M01/M02 A2999 RMK A01 T10101021  RH  092%=      5-min Rain = 0
KCL1 190527Z 34023G30KT M01/M02 A2999 RMK A01 T10101021  RH  092%=      5-min Rain = 0
KCL1 190528Z 34025KT M01/M02 A2999 RMK A01 T10101021  RH  092%=      5-min Rain = 0
KCL1 190529Z 34023G29KT M01/M02 A2999 RMK A01 T10101021  RH  092%=      5-min Rain = 0
KCL1 190530Z 34026G32KT M01/M02 A2999 RMK A01 T10101021  RH  092%=      5-min Rain = 0
KCL1 190531Z 34027KT M01/M02 A2999 RMK A01 T10101022  RH  092%=      5-min Rain = 0
KCL1 190532Z 34023KT M01/M02 A30 RMK A01 T10101022  RH  091%=      5-min Rain = 0
KCL1 190533Z 34026KT M01/M02 A30 RMK A01 T10101022  RH  091%=      5-min Rain = 0
KCL1 190534Z 34022G30KT M01/M02 A30 RMK A01 T10101022  RH  091%=      5-min Rain = 0
KCL1 190535Z 34024KT M01/M02 A30 RMK A01 T10091022  RH  091%=      5-min Rain = 0
KCL1 190536Z 34022G30KT M01/M02 A30 RMK A01 T10091022  RH  091%=      5-min Rain = 0
KCL1 190537Z 34024G30KT M01/M02 A30 RMK A01 T10091021  RH  091%=      5-min Rain = 0
KCL1 190538Z 34024G30KT M01/M02 A30 RMK A01 T10091022  RH  091%=      5-min Rain = 0
KCL1 190539Z 34023G29KT M01/M02 A30 RMK A01 T10091022  RH  091%=      5-min Rain = 0
KCL1 190540Z 34027G34KT M01/M02 A30 RMK A01 T10091022  RH  091%=      5-min Rain = 0
KCL1 190541Z 34024G30KT M01/M02 A30 RMK A01 T10091022  RH  091%=      5-min Rain = 0
KCL1 190542Z 34024G32KT M01/M02 A30 RMK A01 T10091022  RH  091%=      5-min Rain = 0
KCL1 190543Z 34023G29KT M01/M02 A30 RMK A01 T10081022  RH  091%=      5-min Rain = 0
KCL1 190544Z 33025G33KT M01/M02 A30 RMK A01 T10081022  RH  091%=      5-min Rain = 0
KCL1 190545Z 34027G33KT M01/M02 A30 RMK A01 T10081022  RH  090%=      5-min Rain = 0
KCL1 190546Z 34024KT M01/M02 A3001 RMK A01 T10081022  RH  090%=      5-min Rain = 0
KCL1 190547Z 34026KT M01/M02 A3001 RMK A01 T10081021  RH  091%=      5-min Rain = 0
KCL1 190548Z 33024G33KT M01/M02 A3001 RMK A01 T10081021  RH  091%=      5-min Rain = 0
KCL1 190549Z 34020G25KT M01/M02 A3001 RMK A01 T10081021  RH  091%=      5-min Rain = 0
KCL1 190550Z 34025G31KT M01/M02 A30 RMK A01 T10081021  RH  091%=      5-min Rain = 0
KCL1 190551Z 34022G30KT M01/M02 A3001 RMK A01 T10081021  RH  091%=      5-min Rain = 0
KCL1 190552Z 34026G33KT M01/M02 A3001 RMK A01 T10081021  RH  091%=      5-min Rain = 0
KCL1 190553Z 34025G31KT M01/M02 A3001 RMK A01 T10081021  RH  091%=      5-min Rain = 0
KCL1 190554Z 34027KT M01/M02 A3001 RMK A01 T10081021  RH  091%=      5-min Rain = 0
KCL1 190555Z 34025KT M01/M02 A3001 RMK A01 T10071020  RH  091%=      5-min Rain = 0
KCL1 190556Z 34029G35KT M01/M02 A3001 RMK A01 T10071020  RH  091%=      5-min Rain = 0
KCL1 190557Z 33026G32KT M01/M02 A3001 RMK A01 T10071020  RH  091%=      5-min Rain = 0
KCL1 190558Z 33024G31KT M01/M02 A3001 RMK A01 T10081021  RH  091%=      5-min Rain = 0
KCL1 190559Z 33026G34KT M01/M02 A3001 RMK A01 T10081020  RH  091%=      5-min Rain = 0

Page generated in 0.1637 seconds.